ASA850 RJBB-PHNL
Flight info
| Callsign | ASA850 |
|---|---|
| Flight time | 7h 35m |
| Altitude | 36000 |
| Route | TOMOH DOPDA KEC Y43 ISEBI Y81 TASOT Y57 LIGNI Y818 DOLBA SMOLT OTR15 MORAY 35N150E 35N160E 34N170E 32N180E 28N170W DCT ECEDO DCT DANNO BOOKE8 |
| Aircraft | A21N/M-SDE3FGHIRWY/LB1 |
Departure
| Time | 2026-05-07 14:44 |
|---|---|
| Airport | Kansai International Airport (RJBB) |
Arrival
| Time | 2026-05-07 22:20 |
|---|---|
| Airport | Daniel K. Inouye International Airport (PHNL) |
| Time | Latitude | Longitude | Altitude | Speed | Heading |
|---|---|---|---|---|---|
| 2026-05-07 14:27 | 34.43269 | 135.24367 | 33 ft | 0 kts | 322° |
| 2026-05-07 14:28 | 34.43258 | 135.24377 | 33 ft | 2 kts | 312° |
| 2026-05-07 14:28 | 34.43249 | 135.24391 | 33 ft | 2 kts | 304° |
| 2026-05-07 14:28 | 34.43242 | 135.24406 | 33 ft | 2 kts | 294° |
| 2026-05-07 14:28 | 34.43236 | 135.24423 | 33 ft | 2 kts | 285° |
| 2026-05-07 14:29 | 34.43234 | 135.24442 | 33 ft | 2 kts | 275° |
| 2026-05-07 14:29 | 34.43234 | 135.24458 | 33 ft | 2 kts | 266° |
| 2026-05-07 14:29 | 34.43235 | 135.24477 | 33 ft | 2 kts | 256° |
| 2026-05-07 14:29 | 34.43240 | 135.24493 | 33 ft | 2 kts | 247° |
| 2026-05-07 14:30 | 34.43247 | 135.24510 | 33 ft | 2 kts | 238° |
| 2026-05-07 14:30 | 34.43251 | 135.24519 | 33 ft | 1 kts | 232° |
| 2026-05-07 14:30 | 34.43254 | 135.24522 | 33 ft | 0 kts | 231° |
| 2026-05-07 14:31 | 34.43253 | 135.24521 | 33 ft | 1 kts | 231° |
| 2026-05-07 14:32 | 34.43237 | 135.24498 | 33 ft | 5 kts | 231° |
| 2026-05-07 14:32 | 34.43201 | 135.24445 | 33 ft | 10 kts | 229° |
| 2026-05-07 14:32 | 34.43135 | 135.24428 | 33 ft | 10 kts | 176° |
| 2026-05-07 14:32 | 34.43073 | 135.24393 | 33 ft | 10 kts | 227° |
| 2026-05-07 14:33 | 34.43024 | 135.24326 | 33 ft | 10 kts | 229° |
| 2026-05-07 14:33 | 34.42976 | 135.24257 | 33 ft | 10 kts | 229° |
| 2026-05-07 14:33 | 34.42927 | 135.24185 | 33 ft | 11 kts | 231° |
| 2026-05-07 14:33 | 34.42880 | 135.24114 | 33 ft | 11 kts | 231° |
| 2026-05-07 14:34 | 34.42831 | 135.24039 | 33 ft | 11 kts | 231° |
| 2026-05-07 14:34 | 34.42780 | 135.23964 | 33 ft | 11 kts | 230° |
| 2026-05-07 14:34 | 34.42730 | 135.23891 | 33 ft | 11 kts | 230° |
| 2026-05-07 14:34 | 34.42679 | 135.23814 | 33 ft | 11 kts | 231° |
| 2026-05-07 14:35 | 34.42629 | 135.23738 | 33 ft | 11 kts | 230° |
| 2026-05-07 14:35 | 34.42578 | 135.23660 | 33 ft | 11 kts | 240° |
| 2026-05-07 14:35 | 34.42599 | 135.23575 | 33 ft | 11 kts | 317° |
| 2026-05-07 14:35 | 34.42662 | 135.23509 | 33 ft | 12 kts | 320° |
| 2026-05-07 14:36 | 34.42726 | 135.23444 | 33 ft | 12 kts | 320° |
| 2026-05-07 14:36 | 34.42793 | 135.23379 | 33 ft | 12 kts | 321° |
| 2026-05-07 14:36 | 34.42860 | 135.23314 | 33 ft | 12 kts | 321° |
| 2026-05-07 14:36 | 34.42930 | 135.23247 | 33 ft | 12 kts | 322° |
| 2026-05-07 14:37 | 34.42999 | 135.23181 | 33 ft | 12 kts | 321° |
| 2026-05-07 14:37 | 34.43138 | 135.23044 | 33 ft | 12 kts | 320° |
| 2026-05-07 14:37 | 34.43209 | 135.22974 | 33 ft | 14 kts | 321° |
| 2026-05-07 14:38 | 34.43293 | 135.22890 | 33 ft | 16 kts | 320° |
| 2026-05-07 14:38 | 34.43393 | 135.22797 | 33 ft | 19 kts | 321° |
| 2026-05-07 14:38 | 34.43503 | 135.22688 | 33 ft | 21 kts | 322° |
| 2026-05-07 14:38 | 34.43622 | 135.22572 | 33 ft | 20 kts | 320° |
| 2026-05-07 14:39 | 34.43682 | 135.22525 | 33 ft | 10 kts | 310° |
| 2026-05-07 14:39 | 34.43735 | 135.22469 | 33 ft | 10 kts | 323° |
| 2026-05-07 14:39 | 34.43789 | 135.22407 | 33 ft | 10 kts | 324° |
| 2026-05-07 14:39 | 34.43845 | 135.22420 | 33 ft | 10 kts | 81° |
| 2026-05-07 14:40 | 34.43883 | 135.22490 | 33 ft | 10 kts | 51° |
| 2026-05-07 14:40 | 34.43928 | 135.22560 | 33 ft | 10 kts | 51° |
| 2026-05-07 14:40 | 34.43977 | 135.22630 | 33 ft | 11 kts | 50° |
| 2026-05-07 14:40 | 34.44026 | 135.22704 | 33 ft | 11 kts | 51° |
| 2026-05-07 14:41 | 34.44080 | 135.22784 | 33 ft | 14 kts | 51° |
| 2026-05-07 14:41 | 34.44152 | 135.22894 | 33 ft | 18 kts | 51° |
| 2026-05-07 14:41 | 34.44243 | 135.23025 | 33 ft | 22 kts | 51° |
| 2026-05-07 14:41 | 34.44347 | 135.23183 | 33 ft | 25 kts | 51° |
| 2026-05-07 14:42 | 34.44467 | 135.23364 | 33 ft | 31 kts | 50° |
| 2026-05-07 14:42 | 34.44624 | 135.23598 | 33 ft | 40 kts | 51° |
| 2026-05-07 14:42 | 34.44814 | 135.23891 | 33 ft | 47 kts | 48° |
| 2026-05-07 14:42 | 34.45004 | 135.24089 | 33 ft | 15 kts | 340° |
| 2026-05-07 14:43 | 34.45018 | 135.24080 | 33 ft | 0 kts | 329° |
| 2026-05-07 14:43 | 34.45019 | 135.24080 | 33 ft | 1 kts | 326° |
| 2026-05-07 14:43 | 34.45028 | 135.24014 | 33 ft | 11 kts | 295° |
| 2026-05-07 14:43 | 34.45069 | 135.23955 | 33 ft | 9 kts | 276° |
| 2026-05-07 14:44 | 34.44965 | 135.23761 | 33 ft | 56 kts | 232° |
| 2026-05-07 14:44 | 34.44580 | 135.23166 | 33 ft | 121 kts | 227° |
| 2026-05-07 14:44 | 34.43928 | 135.22221 | 140 ft | 161 kts | 229° |
| 2026-05-07 14:44 | 34.43206 | 135.21156 | 673 ft | 167 kts | 232° |
| 2026-05-07 14:45 | 34.42740 | 135.19888 | 1279 ft | 169 kts | 257° |
| 2026-05-07 14:45 | 34.42561 | 135.18480 | 1771 ft | 171 kts | 261° |
| 2026-05-07 14:45 | 34.42410 | 135.16981 | 2052 ft | 189 kts | 262° |
| 2026-05-07 14:45 | 34.42248 | 135.15334 | 2386 ft | 206 kts | 262° |
| 2026-05-07 14:46 | 34.42070 | 135.13535 | 2744 ft | 223 kts | 262° |
| 2026-05-07 14:46 | 34.41876 | 135.11610 | 3110 ft | 241 kts | 262° |
| 2026-05-07 14:46 | 34.41496 | 135.09561 | 3484 ft | 257 kts | 243° |
| 2026-05-07 14:46 | 34.40359 | 135.07889 | 4102 ft | 263 kts | 215° |
| 2026-05-07 14:47 | 34.38775 | 135.06821 | 4885 ft | 264 kts | 205° |
| 2026-05-07 14:47 | 34.37094 | 135.05904 | 5608 ft | 268 kts | 205° |
| 2026-05-07 14:47 | 34.35395 | 135.04965 | 6322 ft | 271 kts | 206° |
| 2026-05-07 14:47 | 34.33699 | 135.03983 | 7039 ft | 274 kts | 207° |
| 2026-05-07 14:48 | 34.31992 | 135.02962 | 7749 ft | 277 kts | 207° |
| 2026-05-07 14:48 | 34.30254 | 135.01904 | 8450 ft | 280 kts | 208° |
| 2026-05-07 14:48 | 34.28523 | 135.00845 | 9120 ft | 284 kts | 208° |
| 2026-05-07 14:48 | 34.26761 | 134.99764 | 9775 ft | 287 kts | 208° |
| 2026-05-07 14:49 | 34.24972 | 134.98663 | 10359 ft | 293 kts | 208° |
| 2026-05-07 14:49 | 34.23123 | 134.97523 | 10659 ft | 309 kts | 208° |
| 2026-05-07 14:49 | 34.21175 | 134.96326 | 10938 ft | 324 kts | 208° |
| 2026-05-07 14:49 | 34.19104 | 134.95053 | 11210 ft | 339 kts | 208° |
| 2026-05-07 14:50 | 34.16951 | 134.93733 | 11496 ft | 353 kts | 207° |
| 2026-05-07 14:50 | 34.14585 | 134.92830 | 11930 ft | 363 kts | 185° |
| 2026-05-07 14:50 | 34.12083 | 134.93234 | 12514 ft | 367 kts | 159° |
| 2026-05-07 14:50 | 34.09959 | 134.94852 | 13087 ft | 371 kts | 136° |
| 2026-05-07 14:51 | 34.08202 | 134.97183 | 13653 ft | 374 kts | 131° |
| 2026-05-07 14:51 | 34.06514 | 134.99561 | 14137 ft | 379 kts | 131° |
| 2026-05-07 14:51 | 34.04774 | 135.01971 | 14635 ft | 384 kts | 132° |
| 2026-05-07 14:51 | 34.02993 | 135.04382 | 15138 ft | 387 kts | 133° |
| 2026-05-07 14:52 | 34.01176 | 135.06798 | 15630 ft | 391 kts | 133° |
| 2026-05-07 14:52 | 33.99327 | 135.09233 | 16110 ft | 395 kts | 133° |
| 2026-05-07 14:52 | 33.97451 | 135.11687 | 16582 ft | 399 kts | 133° |
| 2026-05-07 14:52 | 33.95561 | 135.14148 | 17041 ft | 402 kts | 134° |
| 2026-05-07 14:53 | 33.93675 | 135.16599 | 17490 ft | 405 kts | 134° |
| 2026-05-07 14:53 | 33.91750 | 135.19095 | 17933 ft | 409 kts | 134° |
| 2026-05-07 14:53 | 33.89826 | 135.21590 | 18363 ft | 412 kts | 134° |
| 2026-05-07 14:53 | 33.87891 | 135.24095 | 18796 ft | 415 kts | 134° |
| 2026-05-07 14:54 | 33.85902 | 135.26668 | 19233 ft | 417 kts | 134° |
| 2026-05-07 14:54 | 33.83930 | 135.29216 | 19635 ft | 420 kts | 134° |
| 2026-05-07 14:54 | 33.81947 | 135.31776 | 20024 ft | 423 kts | 134° |
| 2026-05-07 14:54 | 33.79920 | 135.34393 | 20415 ft | 426 kts | 134° |
| 2026-05-07 14:55 | 33.77884 | 135.37019 | 20797 ft | 429 kts | 134° |
| 2026-05-07 14:55 | 33.75848 | 135.39642 | 21168 ft | 432 kts | 134° |
| 2026-05-07 14:55 | 33.73795 | 135.42287 | 21528 ft | 435 kts | 134° |
| 2026-05-07 14:55 | 33.71734 | 135.44939 | 21880 ft | 437 kts | 134° |
| 2026-05-07 14:56 | 33.69637 | 135.47635 | 22232 ft | 440 kts | 134° |
| 2026-05-07 14:56 | 33.67557 | 135.50307 | 22567 ft | 443 kts | 134° |
| 2026-05-07 14:56 | 33.65453 | 135.53009 | 22904 ft | 445 kts | 134° |
| 2026-05-07 14:56 | 33.63300 | 135.55769 | 23237 ft | 448 kts | 134° |
| 2026-05-07 14:57 | 33.61182 | 135.58485 | 23549 ft | 450 kts | 134° |
| 2026-05-07 14:57 | 33.59035 | 135.61235 | 23864 ft | 453 kts | 134° |
| 2026-05-07 14:57 | 33.56882 | 135.63991 | 24165 ft | 455 kts | 134° |
| 2026-05-07 14:57 | 33.54711 | 135.66765 | 24452 ft | 458 kts | 135° |
| 2026-05-07 14:58 | 33.52502 | 135.69586 | 24745 ft | 460 kts | 135° |
| 2026-05-07 14:58 | 33.50316 | 135.72377 | 25029 ft | 462 kts | 135° |
| 2026-05-07 14:58 | 33.48111 | 135.75226 | 25299 ft | 465 kts | 132° |
| 2026-05-07 14:58 | 33.46394 | 135.78477 | 25502 ft | 471 kts | 113° |
| 2026-05-07 14:59 | 33.45621 | 135.82289 | 25751 ft | 472 kts | 92° |
| 2026-05-07 14:59 | 33.45896 | 135.86204 | 26011 ft | 469 kts | 76° |
| 2026-05-07 14:59 | 33.46651 | 135.89996 | 26287 ft | 470 kts | 73° |
| 2026-05-07 14:59 | 33.47480 | 135.93832 | 26499 ft | 473 kts | 73° |
| 2026-05-07 15:00 | 33.48297 | 135.97658 | 26728 ft | 476 kts | 73° |
| 2026-05-07 15:00 | 33.49103 | 136.01538 | 26970 ft | 478 kts | 74° |
| 2026-05-07 15:00 | 33.49887 | 136.05415 | 27203 ft | 480 kts | 74° |
| 2026-05-07 15:00 | 33.50663 | 136.09323 | 27431 ft | 482 kts | 74° |
| 2026-05-07 15:01 | 33.51427 | 136.13207 | 27645 ft | 484 kts | 74° |
| 2026-05-07 15:01 | 33.52202 | 136.17163 | 27872 ft | 486 kts | 74° |
| 2026-05-07 15:01 | 33.52969 | 136.21103 | 28095 ft | 487 kts | 74° |
| 2026-05-07 15:01 | 33.53747 | 136.25108 | 28310 ft | 489 kts | 74° |
| 2026-05-07 15:02 | 33.54512 | 136.29050 | 28590 ft | 490 kts | 74° |
| 2026-05-07 15:02 | 33.55283 | 136.33035 | 28907 ft | 489 kts | 74° |
| 2026-05-07 15:02 | 33.56053 | 136.37022 | 29221 ft | 488 kts | 74° |
| 2026-05-07 15:02 | 33.56815 | 136.40973 | 29520 ft | 488 kts | 74° |
| 2026-05-07 15:03 | 33.57576 | 136.44928 | 29822 ft | 488 kts | 74° |
| 2026-05-07 15:03 | 33.58343 | 136.48917 | 30114 ft | 488 kts | 74° |
| 2026-05-07 15:03 | 33.59105 | 136.52890 | 30408 ft | 488 kts | 74° |
| 2026-05-07 15:03 | 33.59868 | 136.56879 | 30692 ft | 488 kts | 74° |
| 2026-05-07 15:04 | 33.60631 | 136.60870 | 30988 ft | 488 kts | 74° |
| 2026-05-07 15:04 | 33.61381 | 136.64804 | 31288 ft | 487 kts | 74° |
| 2026-05-07 15:04 | 33.62147 | 136.68831 | 31556 ft | 488 kts | 75° |
| 2026-05-07 15:04 | 33.62900 | 136.72790 | 31810 ft | 488 kts | 75° |
| 2026-05-07 15:05 | 33.63644 | 136.76714 | 32060 ft | 488 kts | 75° |
| 2026-05-07 15:05 | 33.64397 | 136.80721 | 32324 ft | 488 kts | 75° |
| 2026-05-07 15:05 | 33.65139 | 136.84695 | 32585 ft | 488 kts | 75° |
| 2026-05-07 15:05 | 33.65876 | 136.88660 | 32845 ft | 488 kts | 75° |
| 2026-05-07 15:06 | 33.66614 | 136.92639 | 33101 ft | 487 kts | 75° |
| 2026-05-07 15:06 | 33.67352 | 136.96620 | 33371 ft | 487 kts | 75° |
| 2026-05-07 15:06 | 33.68078 | 137.00545 | 33625 ft | 486 kts | 74° |
| 2026-05-07 15:06 | 33.68824 | 137.04576 | 33862 ft | 486 kts | 74° |
| 2026-05-07 15:07 | 33.69405 | 137.07912 | 34062 ft | 487 kts | 77° |
| 2026-05-07 15:07 | 33.69924 | 137.11897 | 34280 ft | 489 kts | 81° |
| 2026-05-07 15:07 | 33.70241 | 137.15977 | 34479 ft | 491 kts | 84° |
| 2026-05-07 15:07 | 33.70394 | 137.20079 | 34667 ft | 492 kts | 86° |
| 2026-05-07 15:08 | 33.70508 | 137.24187 | 34849 ft | 493 kts | 86° |
| 2026-05-07 15:08 | 33.70614 | 137.28294 | 35041 ft | 493 kts | 86° |
| 2026-05-07 15:08 | 33.70725 | 137.32428 | 35225 ft | 494 kts | 86° |
| 2026-05-07 15:08 | 33.70824 | 137.36005 | 35381 ft | 495 kts | 86° |
| 2026-05-07 15:09 | 33.70939 | 137.40088 | 35558 ft | 495 kts | 86° |
| 2026-05-07 15:09 | 33.71057 | 137.44263 | 35729 ft | 496 kts | 86° |
| 2026-05-07 15:09 | 33.71176 | 137.48462 | 35877 ft | 497 kts | 86° |
| 2026-05-07 15:09 | 33.71292 | 137.52582 | 35907 ft | 498 kts | 85° |
| 2026-05-07 15:10 | 33.71525 | 137.60913 | 35912 ft | 498 kts | 86° |
| 2026-05-07 15:10 | 33.71751 | 137.69240 | 35913 ft | 499 kts | 86° |
| 2026-05-07 15:11 | 33.71975 | 137.77622 | 35915 ft | 506 kts | 86° |
| 2026-05-07 15:11 | 33.72192 | 137.86119 | 35915 ft | 512 kts | 86° |
| 2026-05-07 15:12 | 33.72409 | 137.94714 | 35915 ft | 516 kts | 86° |
| 2026-05-07 15:12 | 33.72620 | 138.03361 | 35914 ft | 519 kts | 86° |
| 2026-05-07 15:13 | 33.72825 | 138.12079 | 35914 ft | 519 kts | 86° |
| 2026-05-07 15:13 | 33.73024 | 138.20726 | 35914 ft | 520 kts | 86° |
| 2026-05-07 15:14 | 33.73219 | 138.29416 | 35913 ft | 520 kts | 86° |
| 2026-05-07 15:14 | 33.73411 | 138.38138 | 35913 ft | 520 kts | 85° |
| 2026-05-07 15:15 | 33.74275 | 138.46809 | 35913 ft | 516 kts | 75° |
| 2026-05-07 15:15 | 33.76376 | 138.54996 | 35913 ft | 511 kts | 63° |
| 2026-05-07 15:16 | 33.79642 | 138.62605 | 35914 ft | 505 kts | 54° |
| 2026-05-07 15:16 | 33.83308 | 138.69737 | 35912 ft | 505 kts | 53° |
| 2026-05-07 15:17 | 33.86987 | 138.76907 | 35913 ft | 505 kts | 54° |
| 2026-05-07 15:17 | 33.90660 | 138.84163 | 35914 ft | 506 kts | 54° |
| 2026-05-07 15:18 | 33.94312 | 138.91425 | 35913 ft | 505 kts | 54° |
| 2026-05-07 15:18 | 33.97946 | 138.98666 | 35914 ft | 505 kts | 54° |
| 2026-05-07 15:19 | 34.01570 | 139.05907 | 35914 ft | 504 kts | 54° |
| 2026-05-07 15:19 | 34.05186 | 139.13141 | 35914 ft | 502 kts | 54° |
| 2026-05-07 15:20 | 34.08782 | 139.20351 | 35914 ft | 502 kts | 54° |
| 2026-05-07 15:20 | 34.12341 | 139.27502 | 35914 ft | 500 kts | 54° |
| 2026-05-07 15:21 | 34.15911 | 139.34724 | 35912 ft | 500 kts | 54° |
| 2026-05-07 15:21 | 34.19468 | 139.41957 | 35914 ft | 501 kts | 54° |
| 2026-05-07 15:22 | 34.23019 | 139.49190 | 35914 ft | 501 kts | 54° |
| 2026-05-07 15:22 | 34.26564 | 139.56421 | 35913 ft | 501 kts | 54° |
| 2026-05-07 15:23 | 34.30116 | 139.63684 | 35914 ft | 501 kts | 54° |
| 2026-05-07 15:23 | 34.33659 | 139.70941 | 35912 ft | 501 kts | 54° |
| 2026-05-07 15:24 | 34.37176 | 139.78162 | 35913 ft | 501 kts | 55° |
| 2026-05-07 15:24 | 34.40728 | 139.85466 | 35910 ft | 501 kts | 55° |
| 2026-05-07 15:25 | 34.44258 | 139.92741 | 35906 ft | 501 kts | 55° |
| 2026-05-07 15:25 | 34.47772 | 140.00001 | 35902 ft | 501 kts | 54° |
| 2026-05-07 15:26 | 34.51297 | 140.07297 | 35901 ft | 501 kts | 54° |
| 2026-05-07 15:26 | 34.54828 | 140.14618 | 35900 ft | 501 kts | 55° |
| 2026-05-07 15:27 | 34.58339 | 140.21915 | 35899 ft | 501 kts | 54° |
| 2026-05-07 15:27 | 34.61872 | 140.29272 | 35900 ft | 501 kts | 55° |
| 2026-05-07 15:28 | 34.65232 | 140.36706 | 35899 ft | 505 kts | 60° |
| 2026-05-07 15:28 | 34.67671 | 140.44765 | 35900 ft | 511 kts | 71° |
| 2026-05-07 15:29 | 34.68927 | 140.53271 | 35899 ft | 516 kts | 82° |
| 2026-05-07 15:29 | 34.69172 | 140.62021 | 35900 ft | 518 kts | 86° |
| 2026-05-07 15:30 | 34.69239 | 140.70729 | 35898 ft | 518 kts | 87° |
| 2026-05-07 15:30 | 34.69329 | 140.79442 | 35899 ft | 517 kts | 87° |
| 2026-05-07 15:31 | 34.69435 | 140.88179 | 35899 ft | 518 kts | 87° |
| 2026-05-07 15:31 | 34.69537 | 140.96918 | 35900 ft | 517 kts | 86° |
| 2026-05-07 15:32 | 34.69635 | 141.05652 | 35899 ft | 516 kts | 86° |
| 2026-05-07 15:32 | 34.69728 | 141.14329 | 35899 ft | 514 kts | 86° |
| 2026-05-07 15:33 | 34.69814 | 141.22937 | 35899 ft | 508 kts | 86° |
| 2026-05-07 15:33 | 34.69895 | 141.31516 | 35898 ft | 509 kts | 86° |
| 2026-05-07 15:34 | 34.69968 | 141.40153 | 35900 ft | 509 kts | 86° |
| 2026-05-07 15:34 | 34.69761 | 141.48759 | 35901 ft | 514 kts | 90° |
| 2026-05-07 15:35 | 34.69321 | 141.57461 | 35900 ft | 516 kts | 90° |
| 2026-05-07 15:35 | 34.68868 | 141.66154 | 35898 ft | 516 kts | 91° |
| 2026-05-07 15:36 | 34.68967 | 141.74808 | 35899 ft | 513 kts | 84° |
| 2026-05-07 15:36 | 34.69347 | 141.83435 | 35900 ft | 513 kts | 83° |
| 2026-05-07 15:37 | 34.69731 | 141.92102 | 35899 ft | 513 kts | 83° |
| 2026-05-07 15:37 | 34.70107 | 142.00807 | 35900 ft | 513 kts | 84° |
| 2026-05-07 15:38 | 34.70476 | 142.09549 | 35899 ft | 513 kts | 84° |
| 2026-05-07 15:38 | 34.70836 | 142.18240 | 35899 ft | 513 kts | 84° |
| 2026-05-07 15:39 | 34.71188 | 142.26883 | 35900 ft | 513 kts | 83° |
| 2026-05-07 15:39 | 34.71532 | 142.35510 | 35899 ft | 513 kts | 84° |
| 2026-05-07 15:40 | 34.71873 | 142.44159 | 35898 ft | 513 kts | 84° |
| 2026-05-07 15:40 | 34.72208 | 142.52823 | 35899 ft | 513 kts | 83° |
| 2026-05-07 15:41 | 34.72535 | 142.61430 | 35899 ft | 513 kts | 84° |
| 2026-05-07 15:41 | 34.72858 | 142.70110 | 35898 ft | 514 kts | 84° |
| 2026-05-07 15:42 | 34.73174 | 142.78758 | 35899 ft | 514 kts | 84° |
| 2026-05-07 15:42 | 34.73482 | 142.87433 | 35900 ft | 514 kts | 84° |
| 2026-05-07 15:43 | 34.73782 | 142.96024 | 35899 ft | 512 kts | 84° |
| 2026-05-07 15:43 | 34.74079 | 143.04662 | 35900 ft | 511 kts | 84° |
| 2026-05-07 15:44 | 34.74369 | 143.13271 | 35899 ft | 511 kts | 84° |
| 2026-05-07 15:44 | 34.74653 | 143.21876 | 35899 ft | 511 kts | 84° |
| 2026-05-07 15:45 | 34.74932 | 143.30502 | 35899 ft | 511 kts | 84° |
| 2026-05-07 15:45 | 34.75204 | 143.39121 | 35899 ft | 510 kts | 84° |
| 2026-05-07 15:46 | 34.75600 | 143.52029 | 35899 ft | 510 kts | 84° |
| 2026-05-07 15:47 | 34.75856 | 143.60632 | 35898 ft | 510 kts | 84° |
| 2026-05-07 15:47 | 34.76106 | 143.69246 | 35899 ft | 511 kts | 84° |
| 2026-05-07 15:48 | 34.76350 | 143.77864 | 35899 ft | 511 kts | 84° |
| 2026-05-07 15:48 | 34.76589 | 143.86479 | 35899 ft | 511 kts | 84° |
| 2026-05-07 15:49 | 34.76820 | 143.95050 | 35899 ft | 511 kts | 84° |
| 2026-05-07 15:49 | 34.77045 | 144.03683 | 35899 ft | 511 kts | 84° |
| 2026-05-07 15:50 | 34.77264 | 144.12303 | 35899 ft | 511 kts | 84° |
| 2026-05-07 15:50 | 34.77477 | 144.20932 | 35900 ft | 511 kts | 84° |
| 2026-05-07 15:51 | 34.77685 | 144.29570 | 35900 ft | 511 kts | 84° |
| 2026-05-07 15:51 | 34.77886 | 144.38141 | 35900 ft | 511 kts | 84° |
| 2026-05-07 15:52 | 34.78083 | 144.46764 | 35899 ft | 511 kts | 84° |
| 2026-05-07 15:52 | 34.78273 | 144.55431 | 35898 ft | 511 kts | 84° |
| 2026-05-07 15:53 | 34.78458 | 144.64038 | 35900 ft | 511 kts | 84° |
| 2026-05-07 15:53 | 34.78637 | 144.72667 | 35898 ft | 511 kts | 85° |
| 2026-05-07 15:54 | 34.78806 | 144.81273 | 35886 ft | 511 kts | 85° |
| 2026-05-07 15:54 | 34.78973 | 144.89897 | 35878 ft | 511 kts | 85° |
| 2026-05-07 15:55 | 34.79133 | 144.98543 | 35874 ft | 512 kts | 85° |
| 2026-05-07 15:55 | 34.79287 | 145.07146 | 35872 ft | 509 kts | 85° |
| 2026-05-07 15:56 | 34.79434 | 145.15681 | 35872 ft | 506 kts | 85° |
| 2026-05-07 15:56 | 34.79572 | 145.24248 | 35871 ft | 504 kts | 85° |
| 2026-05-07 15:57 | 34.79703 | 145.32750 | 35872 ft | 504 kts | 85° |
| 2026-05-07 15:57 | 34.79829 | 145.41272 | 35871 ft | 504 kts | 85° |
| 2026-05-07 15:58 | 34.79951 | 145.49773 | 35870 ft | 504 kts | 85° |
| 2026-05-07 15:58 | 34.80065 | 145.58254 | 35870 ft | 504 kts | 85° |
| 2026-05-07 15:59 | 34.80174 | 145.66756 | 35869 ft | 504 kts | 86° |
| 2026-05-07 15:59 | 34.80277 | 145.75276 | 35870 ft | 504 kts | 86° |
| 2026-05-07 16:00 | 34.80376 | 145.83792 | 35870 ft | 504 kts | 86° |
| 2026-05-07 16:00 | 34.80467 | 145.92299 | 35871 ft | 504 kts | 86° |
| 2026-05-07 16:01 | 34.80553 | 146.00813 | 35872 ft | 504 kts | 86° |
| 2026-05-07 16:01 | 34.80634 | 146.09283 | 35871 ft | 504 kts | 86° |
| 2026-05-07 16:02 | 34.80709 | 146.17790 | 35871 ft | 504 kts | 86° |
| 2026-05-07 16:02 | 34.80778 | 146.26305 | 35871 ft | 504 kts | 86° |
| 2026-05-07 16:03 | 34.80841 | 146.34825 | 35870 ft | 504 kts | 86° |
| 2026-05-07 16:03 | 34.80897 | 146.43356 | 35871 ft | 504 kts | 86° |
| 2026-05-07 16:04 | 34.80944 | 146.51828 | 35870 ft | 504 kts | 86° |
| 2026-05-07 16:04 | 34.80988 | 146.60347 | 35870 ft | 504 kts | 86° |
| 2026-05-07 16:05 | 34.81028 | 146.68837 | 35870 ft | 504 kts | 86° |
| 2026-05-07 16:05 | 34.81061 | 146.77371 | 35871 ft | 504 kts | 86° |
| 2026-05-07 16:06 | 34.81087 | 146.85889 | 35871 ft | 504 kts | 86° |
| 2026-05-07 16:06 | 34.81109 | 146.94382 | 35873 ft | 503 kts | 87° |
| 2026-05-07 16:07 | 34.81129 | 147.02818 | 35873 ft | 498 kts | 88° |
| 2026-05-07 16:07 | 34.81138 | 147.11206 | 35873 ft | 494 kts | 88° |
| 2026-05-07 16:08 | 34.81139 | 147.19553 | 35872 ft | 491 kts | 88° |
| 2026-05-07 16:08 | 34.81133 | 147.27858 | 35870 ft | 491 kts | 88° |
| 2026-05-07 16:09 | 34.81123 | 147.36144 | 35869 ft | 491 kts | 88° |
| 2026-05-07 16:09 | 34.81109 | 147.44406 | 35870 ft | 491 kts | 88° |
| 2026-05-07 16:10 | 34.81090 | 147.52704 | 35870 ft | 491 kts | 88° |
| 2026-05-07 16:10 | 34.81065 | 147.60989 | 35870 ft | 491 kts | 88° |
| 2026-05-07 16:11 | 34.81034 | 147.69287 | 35870 ft | 491 kts | 89° |
| 2026-05-07 16:11 | 34.80997 | 147.77600 | 35870 ft | 491 kts | 89° |
| 2026-05-07 16:12 | 34.80955 | 147.85867 | 35872 ft | 491 kts | 89° |
| 2026-05-07 16:12 | 34.80907 | 147.94156 | 35872 ft | 491 kts | 89° |
| 2026-05-07 16:13 | 34.80854 | 148.02449 | 35870 ft | 491 kts | 89° |
| 2026-05-07 16:13 | 34.80795 | 148.10763 | 35870 ft | 491 kts | 89° |
| 2026-05-07 16:14 | 34.80732 | 148.19070 | 35871 ft | 491 kts | 89° |
| 2026-05-07 16:14 | 34.80664 | 148.27313 | 35870 ft | 491 kts | 89° |
| 2026-05-07 16:15 | 34.80588 | 148.35623 | 35871 ft | 491 kts | 89° |
| 2026-05-07 16:15 | 34.80505 | 148.43932 | 35870 ft | 491 kts | 89° |
| 2026-05-07 16:16 | 34.80418 | 148.52251 | 35871 ft | 492 kts | 89° |
| 2026-05-07 16:16 | 34.80326 | 148.60539 | 35870 ft | 491 kts | 89° |
| 2026-05-07 16:17 | 34.80228 | 148.68816 | 35870 ft | 491 kts | 89° |
| 2026-05-07 16:17 | 34.80126 | 148.77127 | 35872 ft | 492 kts | 89° |
| 2026-05-07 16:18 | 34.80020 | 148.85419 | 35871 ft | 492 kts | 90° |
| 2026-05-07 16:18 | 34.79912 | 148.93744 | 35871 ft | 493 kts | 91° |
| 2026-05-07 16:19 | 34.79794 | 149.02035 | 35872 ft | 492 kts | 91° |
| 2026-05-07 16:19 | 34.79665 | 149.10326 | 35871 ft | 491 kts | 92° |
| 2026-05-07 16:20 | 34.79527 | 149.18599 | 35871 ft | 491 kts | 92° |
| 2026-05-07 16:20 | 34.79386 | 149.26889 | 35871 ft | 490 kts | 92° |
| 2026-05-07 16:21 | 34.79242 | 149.35167 | 35871 ft | 490 kts | 91° |
| 2026-05-07 16:21 | 34.79094 | 149.43404 | 35871 ft | 490 kts | 92° |
| 2026-05-07 16:22 | 34.78938 | 149.51726 | 35871 ft | 490 kts | 92° |
| 2026-05-07 16:22 | 34.78778 | 149.59982 | 35871 ft | 490 kts | 91° |
| 2026-05-07 16:23 | 34.78614 | 149.68242 | 35870 ft | 490 kts | 92° |
| 2026-05-07 16:23 | 34.78443 | 149.76520 | 35871 ft | 490 kts | 92° |
| 2026-05-07 16:24 | 34.78267 | 149.84811 | 35872 ft | 490 kts | 92° |
| 2026-05-07 16:24 | 34.78085 | 149.93088 | 35871 ft | 490 kts | 92° |
| 2026-05-07 16:25 | 34.77896 | 150.01388 | 35871 ft | 491 kts | 92° |
| 2026-05-07 16:25 | 34.77703 | 150.09665 | 35871 ft | 490 kts | 92° |
| 2026-05-07 16:26 | 34.77504 | 150.17925 | 35871 ft | 491 kts | 92° |
| 2026-05-07 16:26 | 34.77300 | 150.26209 | 35871 ft | 491 kts | 92° |
| 2026-05-07 16:27 | 34.77090 | 150.34465 | 35871 ft | 490 kts | 92° |
| 2026-05-07 16:27 | 34.76874 | 150.42738 | 35871 ft | 490 kts | 92° |
| 2026-05-07 16:28 | 34.76652 | 150.51028 | 35871 ft | 490 kts | 92° |
| 2026-05-07 16:28 | 34.76425 | 150.59285 | 35871 ft | 491 kts | 92° |
| 2026-05-07 16:29 | 34.76193 | 150.67539 | 35870 ft | 490 kts | 93° |
| 2026-05-07 16:29 | 34.75955 | 150.75795 | 35871 ft | 490 kts | 93° |
| 2026-05-07 16:30 | 34.75711 | 150.84097 | 35872 ft | 490 kts | 93° |
| 2026-05-07 16:30 | 34.75461 | 150.92326 | 35871 ft | 490 kts | 93° |
| 2026-05-07 16:31 | 34.75207 | 151.00592 | 35870 ft | 491 kts | 93° |
| 2026-05-07 16:31 | 34.74950 | 151.08923 | 35870 ft | 494 kts | 94° |
| 2026-05-07 16:32 | 34.74686 | 151.17252 | 35869 ft | 496 kts | 95° |
| 2026-05-07 16:32 | 34.74410 | 151.25632 | 35867 ft | 497 kts | 95° |
| 2026-05-07 16:33 | 34.74123 | 151.33993 | 35864 ft | 496 kts | 95° |
| 2026-05-07 16:33 | 34.73832 | 151.42384 | 35857 ft | 497 kts | 95° |
| 2026-05-07 16:34 | 34.73539 | 151.50729 | 35851 ft | 496 kts | 95° |
| 2026-05-07 16:34 | 34.73238 | 151.59148 | 35846 ft | 497 kts | 95° |
| 2026-05-07 16:35 | 34.72936 | 151.67482 | 35843 ft | 496 kts | 96° |
| 2026-05-07 16:35 | 34.72625 | 151.75879 | 35845 ft | 496 kts | 96° |
| 2026-05-07 16:36 | 34.72310 | 151.84224 | 35844 ft | 496 kts | 96° |
| 2026-05-07 16:36 | 34.71988 | 151.92581 | 35845 ft | 496 kts | 96° |
| 2026-05-07 16:37 | 34.71661 | 152.00948 | 35844 ft | 496 kts | 96° |
| 2026-05-07 16:37 | 34.71329 | 152.09290 | 35845 ft | 497 kts | 96° |
| 2026-05-07 16:38 | 34.70992 | 152.17644 | 35845 ft | 497 kts | 96° |
| 2026-05-07 16:38 | 34.70647 | 152.26016 | 35845 ft | 497 kts | 96° |
| 2026-05-07 16:39 | 34.70298 | 152.34380 | 35844 ft | 496 kts | 96° |
| 2026-05-07 16:39 | 34.69942 | 152.42738 | 35844 ft | 496 kts | 96° |
| 2026-05-07 16:40 | 34.69582 | 152.51090 | 35844 ft | 496 kts | 96° |
| 2026-05-07 16:40 | 34.69215 | 152.59433 | 35843 ft | 496 kts | 96° |
| 2026-05-07 16:41 | 34.68843 | 152.67819 | 35843 ft | 496 kts | 96° |
| 2026-05-07 16:41 | 34.68466 | 152.76144 | 35844 ft | 496 kts | 96° |
| 2026-05-07 16:42 | 34.68082 | 152.84494 | 35845 ft | 496 kts | 96° |
| 2026-05-07 16:42 | 34.67692 | 152.92870 | 35844 ft | 496 kts | 96° |
| 2026-05-07 16:43 | 34.67299 | 153.01216 | 35844 ft | 497 kts | 97° |
| 2026-05-07 16:43 | 34.66897 | 153.09581 | 35844 ft | 498 kts | 97° |
| 2026-05-07 16:44 | 34.66488 | 153.17964 | 35844 ft | 499 kts | 97° |
| 2026-05-07 16:44 | 34.66073 | 153.26350 | 35844 ft | 499 kts | 97° |
| 2026-05-07 16:45 | 34.65653 | 153.34740 | 35845 ft | 498 kts | 97° |
| 2026-05-07 16:45 | 34.65226 | 153.43149 | 35845 ft | 499 kts | 97° |
| 2026-05-07 16:46 | 34.64799 | 153.51494 | 35843 ft | 499 kts | 97° |
| 2026-05-07 16:46 | 34.64363 | 153.59885 | 35844 ft | 499 kts | 97° |
| 2026-05-07 16:47 | 34.63921 | 153.68271 | 35844 ft | 498 kts | 98° |
| 2026-05-07 16:47 | 34.63471 | 153.76669 | 35845 ft | 499 kts | 98° |
| 2026-05-07 16:48 | 34.63017 | 153.85066 | 35844 ft | 498 kts | 98° |
| 2026-05-07 16:48 | 34.62558 | 153.93442 | 35845 ft | 499 kts | 98° |
| 2026-05-07 16:49 | 34.62095 | 154.01775 | 35844 ft | 499 kts | 98° |
| 2026-05-07 16:49 | 34.61619 | 154.10197 | 35844 ft | 498 kts | 98° |
| 2026-05-07 16:50 | 34.61142 | 154.18567 | 35844 ft | 499 kts | 98° |
| 2026-05-07 16:50 | 34.60659 | 154.26932 | 35844 ft | 498 kts | 98° |
| 2026-05-07 16:51 | 34.60172 | 154.35288 | 35842 ft | 499 kts | 98° |
| 2026-05-07 16:51 | 34.59679 | 154.43658 | 35844 ft | 498 kts | 98° |
| 2026-05-07 16:52 | 34.59181 | 154.52014 | 35845 ft | 498 kts | 98° |
| 2026-05-07 16:52 | 34.58672 | 154.60426 | 35844 ft | 499 kts | 98° |
| 2026-05-07 16:53 | 34.58163 | 154.68767 | 35844 ft | 499 kts | 98° |
| 2026-05-07 16:53 | 34.57645 | 154.77168 | 35844 ft | 499 kts | 98° |
| 2026-05-07 16:54 | 34.57126 | 154.85490 | 35845 ft | 498 kts | 98° |
| 2026-05-07 16:54 | 34.56596 | 154.93870 | 35845 ft | 497 kts | 98° |
| 2026-05-07 16:55 | 34.56063 | 155.02202 | 35845 ft | 495 kts | 97° |
| 2026-05-07 16:55 | 34.55526 | 155.10504 | 35845 ft | 494 kts | 97° |
| 2026-05-07 16:56 | 34.54989 | 155.18784 | 35844 ft | 495 kts | 97° |
| 2026-05-07 16:56 | 34.54166 | 155.31226 | 35845 ft | 495 kts | 97° |
| 2026-05-07 16:57 | 34.53611 | 155.39506 | 35844 ft | 494 kts | 97° |
| 2026-05-07 16:57 | 34.53050 | 155.47806 | 35844 ft | 495 kts | 97° |
| 2026-05-07 16:58 | 34.52485 | 155.56094 | 35844 ft | 494 kts | 97° |
| 2026-05-07 16:58 | 34.51915 | 155.64378 | 35844 ft | 495 kts | 97° |
| 2026-05-07 16:59 | 34.51338 | 155.72649 | 35843 ft | 494 kts | 98° |
| 2026-05-07 16:59 | 34.50752 | 155.80980 | 35844 ft | 494 kts | 98° |
| 2026-05-07 17:00 | 34.50166 | 155.89235 | 35844 ft | 494 kts | 98° |
| 2026-05-07 17:00 | 34.49572 | 155.97527 | 35844 ft | 494 kts | 98° |
| 2026-05-07 17:01 | 34.48973 | 156.05809 | 35844 ft | 494 kts | 98° |
| 2026-05-07 17:01 | 34.48366 | 156.14111 | 35844 ft | 494 kts | 98° |
| 2026-05-07 17:02 | 34.47758 | 156.22348 | 35844 ft | 495 kts | 98° |
| 2026-05-07 17:02 | 34.47141 | 156.30635 | 35845 ft | 495 kts | 98° |
| 2026-05-07 17:03 | 34.46516 | 156.38947 | 35844 ft | 495 kts | 98° |
| 2026-05-07 17:03 | 34.45890 | 156.47209 | 35844 ft | 494 kts | 98° |
| 2026-05-07 17:04 | 34.45256 | 156.55484 | 35845 ft | 495 kts | 98° |
| 2026-05-07 17:04 | 34.44618 | 156.63766 | 35845 ft | 494 kts | 98° |
| 2026-05-07 17:05 | 34.43974 | 156.72034 | 35844 ft | 495 kts | 99° |
| 2026-05-07 17:05 | 34.43323 | 156.80313 | 35845 ft | 494 kts | 98° |
| 2026-05-07 17:06 | 34.42666 | 156.88603 | 35844 ft | 494 kts | 98° |
| 2026-05-07 17:06 | 34.42005 | 156.96861 | 35844 ft | 495 kts | 98° |
| 2026-05-07 17:07 | 34.41341 | 157.05136 | 35844 ft | 495 kts | 99° |
| 2026-05-07 17:07 | 34.40664 | 157.13483 | 35844 ft | 496 kts | 99° |
| 2026-05-07 17:08 | 34.39987 | 157.21750 | 35844 ft | 497 kts | 99° |
| 2026-05-07 17:08 | 34.39297 | 157.30080 | 35845 ft | 497 kts | 99° |
| 2026-05-07 17:09 | 34.38604 | 157.38359 | 35844 ft | 496 kts | 99° |
| 2026-05-07 17:09 | 34.37905 | 157.46658 | 35844 ft | 497 kts | 99° |
| 2026-05-07 17:10 | 34.37201 | 157.54958 | 35844 ft | 497 kts | 99° |
| 2026-05-07 17:10 | 34.36493 | 157.63246 | 35844 ft | 497 kts | 99° |
| 2026-05-07 17:11 | 34.35781 | 157.71526 | 35844 ft | 496 kts | 100° |
| 2026-05-07 17:11 | 34.35058 | 157.79845 | 35845 ft | 497 kts | 100° |
| 2026-05-07 17:12 | 34.34336 | 157.88089 | 35844 ft | 496 kts | 100° |
| 2026-05-07 17:12 | 34.33602 | 157.96397 | 35844 ft | 497 kts | 100° |
| 2026-05-07 17:13 | 34.32864 | 158.04706 | 35844 ft | 497 kts | 100° |
| 2026-05-07 17:13 | 34.32123 | 158.12981 | 35845 ft | 496 kts | 100° |
| 2026-05-07 17:14 | 34.31376 | 158.21248 | 35844 ft | 496 kts | 100° |
| 2026-05-07 17:14 | 34.30621 | 158.29558 | 35845 ft | 496 kts | 100° |
| 2026-05-07 17:15 | 34.29866 | 158.37795 | 35844 ft | 496 kts | 100° |
| 2026-05-07 17:15 | 34.29094 | 158.46146 | 35844 ft | 496 kts | 100° |
| 2026-05-07 17:16 | 34.28329 | 158.54379 | 35843 ft | 496 kts | 100° |
| 2026-05-07 17:16 | 34.27548 | 158.62701 | 35846 ft | 497 kts | 100° |
| 2026-05-07 17:17 | 34.26768 | 158.70955 | 35850 ft | 496 kts | 101° |
| 2026-05-07 17:17 | 34.25979 | 158.79250 | 35893 ft | 497 kts | 101° |
| 2026-05-07 17:18 | 34.25186 | 158.87529 | 35960 ft | 497 kts | 101° |
| 2026-05-07 17:18 | 34.24386 | 158.95798 | 36027 ft | 495 kts | 100° |
| 2026-05-07 17:19 | 34.23587 | 159.04010 | 36061 ft | 492 kts | 100° |
| 2026-05-07 17:19 | 34.22784 | 159.12207 | 36074 ft | 489 kts | 100° |
| 2026-05-07 17:20 | 34.21982 | 159.20355 | 36077 ft | 487 kts | 100° |
| 2026-05-07 17:20 | 34.21176 | 159.28499 | 36078 ft | 487 kts | 100° |
| 2026-05-07 17:21 | 34.20365 | 159.36623 | 36078 ft | 487 kts | 100° |
| 2026-05-07 17:21 | 34.19551 | 159.44716 | 36077 ft | 487 kts | 99° |
| 2026-05-07 17:22 | 34.18728 | 159.52856 | 36078 ft | 487 kts | 100° |
| 2026-05-07 17:22 | 34.17901 | 159.60962 | 36078 ft | 488 kts | 100° |
| 2026-05-07 17:23 | 34.17067 | 159.69096 | 36077 ft | 487 kts | 101° |
| 2026-05-07 17:23 | 34.16225 | 159.77243 | 36077 ft | 487 kts | 100° |
| 2026-05-07 17:24 | 34.15387 | 159.85310 | 36077 ft | 487 kts | 101° |
| 2026-05-07 17:24 | 34.14538 | 159.93417 | 36077 ft | 487 kts | 101° |
| 2026-05-07 17:25 | 34.13681 | 160.01552 | 36078 ft | 487 kts | 100° |
| 2026-05-07 17:25 | 34.12823 | 160.09641 | 36078 ft | 487 kts | 100° |
| 2026-05-07 17:26 | 34.11962 | 160.17709 | 36078 ft | 487 kts | 100° |
| 2026-05-07 17:26 | 34.11091 | 160.25833 | 36078 ft | 487 kts | 100° |
| 2026-05-07 17:27 | 34.10219 | 160.33907 | 36078 ft | 487 kts | 100° |
| 2026-05-07 17:27 | 34.09336 | 160.42021 | 36078 ft | 487 kts | 100° |
| 2026-05-07 17:28 | 34.08446 | 160.50160 | 36078 ft | 487 kts | 100° |
| 2026-05-07 17:28 | 34.07558 | 160.58223 | 36078 ft | 487 kts | 100° |
| 2026-05-07 17:29 | 34.06665 | 160.66289 | 36078 ft | 487 kts | 101° |
| 2026-05-07 17:29 | 34.05760 | 160.74409 | 36076 ft | 486 kts | 101° |
| 2026-05-07 17:30 | 34.04858 | 160.82449 | 36077 ft | 487 kts | 101° |
| 2026-05-07 17:30 | 34.03939 | 160.90582 | 36075 ft | 492 kts | 101° |
| 2026-05-07 17:31 | 34.03005 | 160.98782 | 36075 ft | 498 kts | 101° |
| 2026-05-07 17:31 | 34.02049 | 161.07140 | 36077 ft | 503 kts | 100° |
| 2026-05-07 17:32 | 34.01091 | 161.15497 | 36078 ft | 504 kts | 100° |
| 2026-05-07 17:32 | 34.00132 | 161.23828 | 36078 ft | 504 kts | 100° |
| 2026-05-07 17:33 | 33.99157 | 161.32219 | 36078 ft | 504 kts | 100° |
| 2026-05-07 17:33 | 33.98179 | 161.40579 | 36078 ft | 504 kts | 100° |
| 2026-05-07 17:34 | 33.97197 | 161.48935 | 36079 ft | 504 kts | 100° |
| 2026-05-07 17:34 | 33.96206 | 161.57301 | 36079 ft | 504 kts | 100° |
| 2026-05-07 17:35 | 33.95209 | 161.65669 | 36078 ft | 504 kts | 101° |
| 2026-05-07 17:35 | 33.94208 | 161.74028 | 36077 ft | 504 kts | 101° |
| 2026-05-07 17:36 | 33.93201 | 161.82385 | 36077 ft | 504 kts | 101° |
| 2026-05-07 17:36 | 33.92189 | 161.90735 | 36078 ft | 504 kts | 101° |
| 2026-05-07 17:37 | 33.91170 | 161.99087 | 36078 ft | 504 kts | 101° |
| 2026-05-07 17:37 | 33.90149 | 162.07417 | 36078 ft | 504 kts | 101° |
| 2026-05-07 17:38 | 33.89119 | 162.15762 | 36078 ft | 504 kts | 101° |
| 2026-05-07 17:38 | 33.88080 | 162.24133 | 36078 ft | 504 kts | 101° |
| 2026-05-07 17:39 | 33.87037 | 162.32495 | 36078 ft | 504 kts | 101° |
| 2026-05-07 17:39 | 33.85992 | 162.40816 | 36078 ft | 504 kts | 101° |
| 2026-05-07 17:40 | 33.84939 | 162.49161 | 35942 ft | 504 kts | 101° |
| 2026-05-07 17:40 | 33.84417 | 162.53281 | 35694 ft | 503 kts | 101° |
| 2026-05-07 17:40 | 33.83893 | 162.57408 | 35445 ft | 503 kts | 101° |
| 2026-05-07 17:41 | 33.83360 | 162.61592 | 35193 ft | 504 kts | 101° |
| 2026-05-07 17:41 | 33.82828 | 162.65761 | 34941 ft | 504 kts | 101° |
| 2026-05-07 17:41 | 33.82292 | 162.69943 | 34689 ft | 505 kts | 101° |
| 2026-05-07 17:41 | 33.81761 | 162.74078 | 34442 ft | 505 kts | 101° |
| 2026-05-07 17:42 | 33.81222 | 162.78267 | 34191 ft | 506 kts | 101° |
| 2026-05-07 17:42 | 33.80681 | 162.82457 | 33940 ft | 507 kts | 101° |
| 2026-05-07 17:42 | 33.80138 | 162.86652 | 33690 ft | 507 kts | 101° |
| 2026-05-07 17:42 | 33.79599 | 162.90802 | 33479 ft | 499 kts | 101° |
| 2026-05-07 17:43 | 33.79069 | 162.94887 | 32915 ft | 496 kts | 101° |
| 2026-05-07 17:43 | 33.78533 | 162.98988 | 32344 ft | 503 kts | 101° |
| 2026-05-07 17:43 | 33.77979 | 163.03195 | 32086 ft | 509 kts | 101° |
| 2026-05-07 17:43 | 33.77422 | 163.07425 | 32078 ft | 513 kts | 101° |
| 2026-05-07 17:44 | 33.76302 | 163.15907 | 32075 ft | 516 kts | 101° |
| 2026-05-07 17:44 | 33.75174 | 163.24435 | 32075 ft | 517 kts | 101° |
| 2026-05-07 17:45 | 33.74039 | 163.32977 | 32076 ft | 518 kts | 101° |
| 2026-05-07 17:45 | 33.72892 | 163.41545 | 32076 ft | 518 kts | 101° |
| 2026-05-07 17:46 | 33.71743 | 163.50084 | 32075 ft | 518 kts | 101° |
| 2026-05-07 17:46 | 33.70584 | 163.58637 | 32075 ft | 518 kts | 101° |
| 2026-05-07 17:47 | 33.69425 | 163.67154 | 32074 ft | 517 kts | 101° |
| 2026-05-07 17:47 | 33.68253 | 163.75719 | 32076 ft | 517 kts | 101° |
| 2026-05-07 17:48 | 33.67084 | 163.84219 | 32076 ft | 517 kts | 101° |
| 2026-05-07 17:48 | 33.65904 | 163.92750 | 32076 ft | 517 kts | 101° |
| 2026-05-07 17:49 | 33.64721 | 164.01257 | 32076 ft | 517 kts | 101° |
| 2026-05-07 17:49 | 33.63524 | 164.09830 | 32076 ft | 517 kts | 101° |
| 2026-05-07 17:50 | 33.62326 | 164.18362 | 32076 ft | 517 kts | 101° |
| 2026-05-07 17:50 | 33.61126 | 164.26872 | 32076 ft | 517 kts | 101° |
| 2026-05-07 17:51 | 33.59919 | 164.35385 | 32076 ft | 517 kts | 101° |
| 2026-05-07 17:51 | 33.58700 | 164.43932 | 32076 ft | 517 kts | 101° |
| 2026-05-07 17:52 | 33.57481 | 164.52435 | 32076 ft | 517 kts | 101° |
| 2026-05-07 17:52 | 33.56251 | 164.60971 | 32076 ft | 517 kts | 101° |
| 2026-05-07 17:53 | 33.55021 | 164.69470 | 32075 ft | 517 kts | 102° |
| 2026-05-07 17:53 | 33.53782 | 164.77983 | 32076 ft | 517 kts | 102° |
| 2026-05-07 17:54 | 33.52537 | 164.86493 | 32076 ft | 517 kts | 102° |
| 2026-05-07 17:54 | 33.51291 | 164.94984 | 32076 ft | 517 kts | 102° |
| 2026-05-07 17:55 | 33.50040 | 165.03476 | 32076 ft | 517 kts | 103° |
| 2026-05-07 17:55 | 33.48780 | 165.11977 | 32076 ft | 516 kts | 103° |
| 2026-05-07 17:56 | 33.47510 | 165.20468 | 32076 ft | 516 kts | 103° |
| 2026-05-07 17:56 | 33.46234 | 165.28963 | 32076 ft | 516 kts | 103° |
| 2026-05-07 17:57 | 33.44955 | 165.37442 | 32076 ft | 516 kts | 103° |
| 2026-05-07 17:57 | 33.43679 | 165.45874 | 32076 ft | 516 kts | 103° |
| 2026-05-07 17:58 | 33.42393 | 165.54326 | 32076 ft | 516 kts | 103° |
| 2026-05-07 17:58 | 33.41102 | 165.62781 | 32076 ft | 516 kts | 103° |
| 2026-05-07 17:59 | 33.39802 | 165.71246 | 32075 ft | 516 kts | 104° |
| 2026-05-07 17:59 | 33.38504 | 165.79658 | 32076 ft | 515 kts | 104° |
| 2026-05-07 18:00 | 33.37191 | 165.88129 | 32076 ft | 515 kts | 103° |
| 2026-05-07 18:00 | 33.35879 | 165.96558 | 32076 ft | 515 kts | 104° |
| 2026-05-07 18:01 | 33.34560 | 166.04990 | 32076 ft | 515 kts | 104° |
| 2026-05-07 18:01 | 33.33227 | 166.13472 | 32075 ft | 515 kts | 103° |
| 2026-05-07 18:02 | 33.31232 | 166.26096 | 32076 ft | 516 kts | 104° |
| 2026-05-07 18:03 | 33.29886 | 166.34569 | 32076 ft | 516 kts | 104° |
| 2026-05-07 18:03 | 33.28542 | 166.42982 | 32076 ft | 515 kts | 103° |
| 2026-05-07 18:04 | 33.27189 | 166.51419 | 32076 ft | 516 kts | 103° |
| 2026-05-07 18:04 | 33.25829 | 166.59856 | 32076 ft | 516 kts | 103° |
| 2026-05-07 18:05 | 33.24471 | 166.68253 | 32075 ft | 516 kts | 104° |
| 2026-05-07 18:05 | 33.23096 | 166.76708 | 32075 ft | 516 kts | 104° |
| 2026-05-07 18:06 | 33.21722 | 166.85107 | 32076 ft | 515 kts | 104° |
| 2026-05-07 18:06 | 33.20345 | 166.93483 | 32076 ft | 515 kts | 103° |
| 2026-05-07 18:07 | 33.18951 | 167.01935 | 32076 ft | 514 kts | 103° |
| 2026-05-07 18:07 | 33.17566 | 167.10312 | 32076 ft | 514 kts | 103° |
| 2026-05-07 18:08 | 33.16174 | 167.18715 | 32076 ft | 514 kts | 103° |
| 2026-05-07 18:08 | 33.14772 | 167.27118 | 32076 ft | 514 kts | 103° |
| 2026-05-07 18:09 | 33.13378 | 167.35440 | 32077 ft | 514 kts | 103° |
| 2026-05-07 18:09 | 33.11966 | 167.43831 | 32081 ft | 514 kts | 103° |
| 2026-05-07 18:10 | 33.10558 | 167.52156 | 32085 ft | 513 kts | 103° |
| 2026-05-07 18:10 | 33.09145 | 167.60472 | 32087 ft | 511 kts | 103° |
| 2026-05-07 18:11 | 33.07728 | 167.68779 | 32086 ft | 510 kts | 103° |
| 2026-05-07 18:11 | 33.06307 | 167.77080 | 32086 ft | 508 kts | 103° |
| 2026-05-07 18:12 | 33.04884 | 167.85344 | 32087 ft | 507 kts | 103° |
| 2026-05-07 18:12 | 33.03471 | 167.93529 | 32087 ft | 505 kts | 103° |
| 2026-05-07 18:13 | 33.02053 | 168.01710 | 32087 ft | 504 kts | 103° |
| 2026-05-07 18:13 | 33.00619 | 168.09944 | 32087 ft | 502 kts | 103° |
| 2026-05-07 18:14 | 32.99203 | 168.18047 | 32087 ft | 501 kts | 103° |
| 2026-05-07 18:14 | 32.97772 | 168.26199 | 32087 ft | 499 kts | 102° |
| 2026-05-07 18:15 | 32.96353 | 168.34253 | 32087 ft | 497 kts | 102° |
| 2026-05-07 18:15 | 32.94926 | 168.42323 | 32087 ft | 497 kts | 102° |
| 2026-05-07 18:16 | 32.93499 | 168.50368 | 32087 ft | 497 kts | 102° |
| 2026-05-07 18:16 | 32.92059 | 168.58447 | 32087 ft | 497 kts | 102° |
| 2026-05-07 18:17 | 32.90625 | 168.66463 | 32086 ft | 496 kts | 103° |
| 2026-05-07 18:17 | 32.89177 | 168.74518 | 32086 ft | 497 kts | 103° |
| 2026-05-07 18:18 | 32.87722 | 168.82576 | 32086 ft | 497 kts | 103° |
| 2026-05-07 18:18 | 32.86267 | 168.90611 | 32086 ft | 496 kts | 103° |
| 2026-05-07 18:19 | 32.84812 | 168.98618 | 32086 ft | 497 kts | 103° |
| 2026-05-07 18:19 | 32.83340 | 169.06682 | 32085 ft | 498 kts | 103° |
| 2026-05-07 18:20 | 32.81860 | 169.14763 | 32085 ft | 500 kts | 103° |
| 2026-05-07 18:20 | 32.80374 | 169.22842 | 32086 ft | 502 kts | 103° |
| 2026-05-07 18:21 | 32.78872 | 169.30978 | 32086 ft | 503 kts | 103° |
| 2026-05-07 18:21 | 32.77367 | 169.39098 | 32086 ft | 503 kts | 103° |
| 2026-05-07 18:22 | 32.75856 | 169.47221 | 32086 ft | 503 kts | 103° |
| 2026-05-07 18:22 | 32.74338 | 169.55351 | 32086 ft | 503 kts | 103° |
| 2026-05-07 18:23 | 32.72818 | 169.63457 | 32086 ft | 503 kts | 103° |
| 2026-05-07 18:23 | 32.71299 | 169.71539 | 32086 ft | 503 kts | 103° |
| 2026-05-07 18:24 | 32.69767 | 169.79645 | 32086 ft | 503 kts | 103° |
| 2026-05-07 18:24 | 32.68233 | 169.87743 | 32086 ft | 502 kts | 103° |
| 2026-05-07 18:25 | 32.66691 | 169.95844 | 32086 ft | 502 kts | 103° |
| 2026-05-07 18:25 | 32.65151 | 170.03903 | 32086 ft | 503 kts | 103° |
| 2026-05-07 18:26 | 32.63608 | 170.11957 | 32086 ft | 502 kts | 103° |
| 2026-05-07 18:26 | 32.62052 | 170.20046 | 32086 ft | 503 kts | 103° |
| 2026-05-07 18:27 | 32.60487 | 170.28151 | 32086 ft | 503 kts | 103° |
| 2026-05-07 18:27 | 32.58922 | 170.36223 | 32086 ft | 502 kts | 103° |
| 2026-05-07 18:28 | 32.57346 | 170.44324 | 32086 ft | 503 kts | 103° |
| 2026-05-07 18:28 | 32.55779 | 170.52351 | 32086 ft | 503 kts | 103° |
| 2026-05-07 18:29 | 32.54198 | 170.60419 | 32086 ft | 503 kts | 103° |
| 2026-05-07 18:29 | 32.52605 | 170.68524 | 32086 ft | 503 kts | 104° |
| 2026-05-07 18:30 | 32.51017 | 170.76572 | 32086 ft | 502 kts | 104° |
| 2026-05-07 18:30 | 32.49423 | 170.84618 | 32086 ft | 502 kts | 104° |
| 2026-05-07 18:31 | 32.47817 | 170.92693 | 32086 ft | 503 kts | 104° |
| 2026-05-07 18:31 | 32.46210 | 171.00743 | 32086 ft | 503 kts | 103° |
| 2026-05-07 18:32 | 32.44594 | 171.08810 | 32086 ft | 503 kts | 103° |
| 2026-05-07 18:32 | 32.42976 | 171.16869 | 32086 ft | 502 kts | 103° |
| 2026-05-07 18:33 | 32.41359 | 171.24901 | 32086 ft | 502 kts | 103° |
| 2026-05-07 18:33 | 32.39737 | 171.32921 | 32086 ft | 502 kts | 103° |
| 2026-05-07 18:34 | 32.38102 | 171.40977 | 32086 ft | 502 kts | 103° |
| 2026-05-07 18:34 | 32.36463 | 171.49023 | 32086 ft | 502 kts | 103° |
| 2026-05-07 18:35 | 32.34816 | 171.57077 | 32086 ft | 502 kts | 103° |
| 2026-05-07 18:35 | 32.33164 | 171.65132 | 32086 ft | 502 kts | 104° |
| 2026-05-07 18:36 | 32.31517 | 171.73134 | 32086 ft | 502 kts | 104° |
| 2026-05-07 18:36 | 32.29862 | 171.81143 | 32086 ft | 502 kts | 104° |
| 2026-05-07 18:37 | 32.28197 | 171.89177 | 32086 ft | 502 kts | 104° |
| 2026-05-07 18:37 | 32.26530 | 171.97192 | 32086 ft | 502 kts | 104° |
| 2026-05-07 18:38 | 32.24860 | 172.05200 | 32086 ft | 502 kts | 104° |
| 2026-05-07 18:38 | 32.23185 | 172.13197 | 32086 ft | 502 kts | 104° |
| 2026-05-07 18:39 | 32.21500 | 172.21219 | 32086 ft | 502 kts | 104° |
| 2026-05-07 18:39 | 32.19809 | 172.29244 | 32086 ft | 502 kts | 104° |
| 2026-05-07 18:40 | 32.18115 | 172.37250 | 32087 ft | 502 kts | 104° |
| 2026-05-07 18:40 | 32.16416 | 172.45253 | 32087 ft | 502 kts | 104° |
| 2026-05-07 18:41 | 32.14717 | 172.53232 | 32087 ft | 502 kts | 104° |
| 2026-05-07 18:41 | 32.13012 | 172.61214 | 32087 ft | 502 kts | 104° |
| 2026-05-07 18:42 | 32.11301 | 172.69194 | 32086 ft | 502 kts | 104° |
| 2026-05-07 18:42 | 32.09593 | 172.77136 | 32086 ft | 502 kts | 104° |
| 2026-05-07 18:43 | 32.07870 | 172.85120 | 32085 ft | 503 kts | 104° |
| 2026-05-07 18:43 | 32.06135 | 172.93127 | 32085 ft | 505 kts | 104° |
| 2026-05-07 18:44 | 32.04394 | 173.01141 | 32086 ft | 507 kts | 104° |
| 2026-05-07 18:44 | 32.02636 | 173.09207 | 32086 ft | 509 kts | 104° |
| 2026-05-07 18:45 | 32.00876 | 173.17273 | 32086 ft | 509 kts | 104° |
| 2026-05-07 18:45 | 31.99102 | 173.25363 | 32087 ft | 509 kts | 104° |
| 2026-05-07 18:46 | 31.97329 | 173.33424 | 32087 ft | 509 kts | 104° |
| 2026-05-07 18:46 | 31.95545 | 173.41507 | 32087 ft | 509 kts | 104° |
| 2026-05-07 18:47 | 31.93769 | 173.49525 | 32087 ft | 509 kts | 104° |
| 2026-05-07 18:47 | 31.91984 | 173.57558 | 32087 ft | 509 kts | 104° |
| 2026-05-07 18:48 | 31.90190 | 173.65605 | 32087 ft | 509 kts | 104° |
| 2026-05-07 18:48 | 31.88384 | 173.73683 | 32086 ft | 509 kts | 104° |
| 2026-05-07 18:49 | 31.86581 | 173.81715 | 32087 ft | 509 kts | 104° |
| 2026-05-07 18:49 | 31.84776 | 173.89737 | 32086 ft | 509 kts | 104° |
| 2026-05-07 18:50 | 31.82963 | 173.97766 | 32086 ft | 509 kts | 104° |
| 2026-05-07 18:50 | 31.81145 | 174.05795 | 32086 ft | 509 kts | 104° |
| 2026-05-07 18:51 | 31.79320 | 174.13826 | 32086 ft | 509 kts | 104° |
| 2026-05-07 18:51 | 31.77487 | 174.21866 | 32086 ft | 509 kts | 104° |
| 2026-05-07 18:52 | 31.75643 | 174.29930 | 32086 ft | 509 kts | 104° |
| 2026-05-07 18:52 | 31.73815 | 174.37901 | 32086 ft | 509 kts | 104° |
| 2026-05-07 18:53 | 31.71968 | 174.45931 | 32086 ft | 509 kts | 104° |
| 2026-05-07 18:53 | 31.70122 | 174.53928 | 32086 ft | 509 kts | 104° |
| 2026-05-07 18:54 | 31.68268 | 174.61934 | 32086 ft | 509 kts | 104° |
| 2026-05-07 18:54 | 31.66404 | 174.69966 | 32085 ft | 509 kts | 105° |
| 2026-05-07 18:55 | 31.64541 | 174.77963 | 32086 ft | 509 kts | 105° |
| 2026-05-07 18:55 | 31.62670 | 174.85965 | 32086 ft | 509 kts | 105° |
| 2026-05-07 18:56 | 31.60796 | 174.93965 | 32086 ft | 509 kts | 105° |
| 2026-05-07 18:56 | 31.58919 | 175.01942 | 32085 ft | 510 kts | 104° |
| 2026-05-07 18:57 | 31.57017 | 175.09990 | 32085 ft | 513 kts | 104° |
| 2026-05-07 18:57 | 31.55098 | 175.18094 | 32085 ft | 516 kts | 103° |
| 2026-05-07 18:58 | 31.53182 | 175.26169 | 32086 ft | 518 kts | 103° |
| 2026-05-07 18:58 | 31.51255 | 175.34285 | 32086 ft | 518 kts | 103° |
| 2026-05-07 18:59 | 31.49314 | 175.42423 | 32086 ft | 517 kts | 103° |
| 2026-05-07 18:59 | 31.47381 | 175.50499 | 32086 ft | 517 kts | 103° |
| 2026-05-07 19:00 | 31.45425 | 175.58643 | 32086 ft | 518 kts | 103° |
| 2026-05-07 19:00 | 31.43473 | 175.66745 | 32085 ft | 517 kts | 104° |
| 2026-05-07 19:01 | 31.41508 | 175.74878 | 32086 ft | 517 kts | 104° |
| 2026-05-07 19:01 | 31.39553 | 175.82942 | 32086 ft | 518 kts | 104° |
| 2026-05-07 19:02 | 31.37580 | 175.91058 | 32086 ft | 518 kts | 104° |
| 2026-05-07 19:02 | 31.35604 | 175.99161 | 32086 ft | 517 kts | 104° |
| 2026-05-07 19:03 | 31.33627 | 176.07243 | 32086 ft | 518 kts | 104° |
| 2026-05-07 19:03 | 31.31635 | 176.15364 | 32086 ft | 518 kts | 104° |
| 2026-05-07 19:04 | 31.29648 | 176.23439 | 32086 ft | 518 kts | 104° |
| 2026-05-07 19:04 | 31.27663 | 176.31485 | 32087 ft | 518 kts | 104° |
| 2026-05-07 19:05 | 31.25654 | 176.39600 | 32087 ft | 517 kts | 104° |
| 2026-05-07 19:05 | 31.23652 | 176.47669 | 32087 ft | 518 kts | 104° |
| 2026-05-07 19:06 | 31.21652 | 176.55704 | 32087 ft | 518 kts | 104° |
| 2026-05-07 19:06 | 31.18635 | 176.67778 | 32085 ft | 517 kts | 104° |
| 2026-05-07 19:07 | 31.16599 | 176.75893 | 32086 ft | 518 kts | 104° |
| 2026-05-07 19:07 | 31.14580 | 176.83919 | 32086 ft | 518 kts | 104° |
| 2026-05-07 19:08 | 31.12540 | 176.92003 | 32086 ft | 518 kts | 104° |
| 2026-05-07 19:08 | 31.10505 | 177.00056 | 32086 ft | 519 kts | 104° |
| 2026-05-07 19:09 | 31.08447 | 177.08173 | 32076 ft | 520 kts | 104° |
| 2026-05-07 19:09 | 31.06390 | 177.16257 | 31997 ft | 520 kts | 105° |
| 2026-05-07 19:10 | 31.04329 | 177.24330 | 31950 ft | 521 kts | 105° |
| 2026-05-07 19:10 | 31.02253 | 177.32436 | 31931 ft | 520 kts | 104° |
| 2026-05-07 19:11 | 31.00178 | 177.40515 | 31924 ft | 519 kts | 104° |
| 2026-05-07 19:11 | 30.98117 | 177.48524 | 31922 ft | 516 kts | 104° |
| 2026-05-07 19:12 | 30.96041 | 177.56566 | 31922 ft | 515 kts | 104° |
| 2026-05-07 19:12 | 30.93985 | 177.64513 | 31922 ft | 513 kts | 104° |
| 2026-05-07 19:13 | 30.91926 | 177.72443 | 31921 ft | 511 kts | 105° |
| 2026-05-07 19:13 | 30.89879 | 177.80307 | 31920 ft | 509 kts | 105° |
| 2026-05-07 19:14 | 30.87825 | 177.88178 | 31921 ft | 507 kts | 104° |
| 2026-05-07 19:14 | 30.85775 | 177.96013 | 31921 ft | 507 kts | 105° |
| 2026-05-07 19:15 | 30.83703 | 178.03908 | 31920 ft | 506 kts | 104° |
| 2026-05-07 19:15 | 30.81644 | 178.11736 | 31920 ft | 506 kts | 104° |
| 2026-05-07 19:16 | 30.79583 | 178.19547 | 31920 ft | 506 kts | 105° |
| 2026-05-07 19:16 | 30.77523 | 178.27331 | 31920 ft | 506 kts | 105° |
| 2026-05-07 19:17 | 30.75433 | 178.35210 | 31919 ft | 506 kts | 104° |
| 2026-05-07 19:17 | 30.73351 | 178.43037 | 31920 ft | 506 kts | 104° |
| 2026-05-07 19:18 | 30.71276 | 178.50816 | 31919 ft | 506 kts | 105° |
| 2026-05-07 19:18 | 30.69179 | 178.58658 | 31920 ft | 506 kts | 105° |
| 2026-05-07 19:19 | 30.67079 | 178.66490 | 31919 ft | 507 kts | 105° |
| 2026-05-07 19:19 | 30.64981 | 178.74300 | 31920 ft | 506 kts | 105° |
| 2026-05-07 19:20 | 30.62876 | 178.82104 | 31920 ft | 506 kts | 105° |
| 2026-05-07 19:20 | 30.60777 | 178.89877 | 31921 ft | 506 kts | 105° |
| 2026-05-07 19:21 | 30.58674 | 178.97641 | 31921 ft | 505 kts | 105° |
| 2026-05-07 19:21 | 30.56549 | 179.05460 | 31921 ft | 505 kts | 106° |
| 2026-05-07 19:22 | 30.54440 | 179.13200 | 31920 ft | 504 kts | 106° |
| 2026-05-07 19:22 | 30.52314 | 179.20979 | 31920 ft | 504 kts | 106° |
| 2026-05-07 19:23 | 30.50202 | 179.28690 | 31920 ft | 504 kts | 106° |
| 2026-05-07 19:23 | 30.48065 | 179.36470 | 31920 ft | 504 kts | 106° |
| 2026-05-07 19:24 | 30.45931 | 179.44223 | 31920 ft | 505 kts | 106° |
| 2026-05-07 19:24 | 30.43787 | 179.51994 | 31920 ft | 505 kts | 106° |
| 2026-05-07 19:25 | 30.41654 | 179.59701 | 31921 ft | 505 kts | 106° |
| 2026-05-07 19:25 | 30.39492 | 179.67494 | 31920 ft | 505 kts | 106° |
| 2026-05-07 19:26 | 30.37343 | 179.75223 | 31920 ft | 505 kts | 106° |
| 2026-05-07 19:26 | 30.35190 | 179.82942 | 31920 ft | 505 kts | 106° |
| 2026-05-07 19:27 | 30.33034 | 179.90655 | 31920 ft | 505 kts | 106° |
| 2026-05-07 19:27 | 30.30862 | 179.98404 | 31920 ft | 505 kts | 106° |
| 2026-05-07 19:28 | 30.28688 | -179.93808 | 32016 ft | 511 kts | 108° |
| 2026-05-07 19:28 | 30.26483 | -179.85997 | 32184 ft | 511 kts | 108° |
| 2026-05-07 19:29 | 30.24277 | -179.78203 | 32267 ft | 510 kts | 108° |
| 2026-05-07 19:29 | 30.22075 | -179.70436 | 32299 ft | 509 kts | 108° |
| 2026-05-07 19:30 | 30.19861 | -179.62634 | 32311 ft | 509 kts | 108° |
| 2026-05-07 19:30 | 30.17646 | -179.54852 | 32315 ft | 509 kts | 108° |
| 2026-05-07 19:31 | 30.15430 | -179.47081 | 32315 ft | 509 kts | 108° |
| 2026-05-07 19:31 | 30.13209 | -179.39320 | 32316 ft | 509 kts | 108° |
| 2026-05-07 19:32 | 30.10988 | -179.31575 | 32316 ft | 509 kts | 108° |
| 2026-05-07 19:32 | 30.08760 | -179.23824 | 32316 ft | 509 kts | 108° |
| 2026-05-07 19:33 | 30.06516 | -179.16036 | 32316 ft | 509 kts | 108° |
| 2026-05-07 19:33 | 30.04285 | -179.08313 | 32316 ft | 509 kts | 108° |
| 2026-05-07 19:34 | 30.02036 | -179.00546 | 32316 ft | 509 kts | 108° |
| 2026-05-07 19:34 | 29.99785 | -178.92793 | 32316 ft | 509 kts | 108° |
| 2026-05-07 19:35 | 29.97544 | -178.85092 | 32316 ft | 509 kts | 108° |
| 2026-05-07 19:35 | 29.95283 | -178.77341 | 32316 ft | 509 kts | 108° |
| 2026-05-07 19:36 | 29.93014 | -178.69583 | 32316 ft | 509 kts | 108° |
| 2026-05-07 19:36 | 29.90750 | -178.61856 | 32316 ft | 509 kts | 108° |
| 2026-05-07 19:37 | 29.88487 | -178.54160 | 32316 ft | 509 kts | 108° |
| 2026-05-07 19:37 | 29.86208 | -178.46419 | 32315 ft | 509 kts | 109° |
| 2026-05-07 19:38 | 29.83916 | -178.38658 | 32316 ft | 509 kts | 109° |
| 2026-05-07 19:38 | 29.81632 | -178.30943 | 32316 ft | 509 kts | 109° |
| 2026-05-07 19:39 | 29.79353 | -178.23263 | 32316 ft | 509 kts | 109° |
| 2026-05-07 19:39 | 29.77056 | -178.15541 | 32316 ft | 509 kts | 109° |
| 2026-05-07 19:40 | 29.74750 | -178.07811 | 32316 ft | 509 kts | 109° |
| 2026-05-07 19:40 | 29.72454 | -178.00130 | 32316 ft | 509 kts | 109° |
| 2026-05-07 19:41 | 29.70149 | -177.92435 | 32316 ft | 509 kts | 109° |
| 2026-05-07 19:41 | 29.67828 | -177.84711 | 32316 ft | 509 kts | 109° |
| 2026-05-07 19:42 | 29.65514 | -177.77022 | 32316 ft | 509 kts | 109° |
| 2026-05-07 19:42 | 29.63195 | -177.69336 | 32316 ft | 509 kts | 109° |
| 2026-05-07 19:43 | 29.60873 | -177.61661 | 32316 ft | 509 kts | 109° |
| 2026-05-07 19:43 | 29.58544 | -177.53981 | 32316 ft | 509 kts | 109° |
| 2026-05-07 19:44 | 29.56199 | -177.46263 | 32316 ft | 509 kts | 109° |
| 2026-05-07 19:44 | 29.53875 | -177.38634 | 32316 ft | 509 kts | 109° |
| 2026-05-07 19:45 | 29.51525 | -177.30939 | 32315 ft | 509 kts | 109° |
| 2026-05-07 19:45 | 29.49184 | -177.23291 | 32316 ft | 509 kts | 109° |
| 2026-05-07 19:46 | 29.46824 | -177.15599 | 32316 ft | 509 kts | 109° |
| 2026-05-07 19:46 | 29.44464 | -177.07922 | 32316 ft | 509 kts | 109° |
| 2026-05-07 19:47 | 29.42110 | -177.00279 | 32316 ft | 510 kts | 110° |
| 2026-05-07 19:47 | 29.39731 | -176.92578 | 32316 ft | 510 kts | 110° |
| 2026-05-07 19:48 | 29.37367 | -176.84944 | 32315 ft | 511 kts | 110° |
| 2026-05-07 19:48 | 29.34987 | -176.77275 | 32316 ft | 511 kts | 110° |
| 2026-05-07 19:49 | 29.32600 | -176.69609 | 32315 ft | 511 kts | 110° |
| 2026-05-07 19:49 | 29.30205 | -176.61925 | 32316 ft | 511 kts | 110° |
| 2026-05-07 19:50 | 29.27800 | -176.54227 | 32316 ft | 511 kts | 110° |
| 2026-05-07 19:50 | 29.25406 | -176.46588 | 32316 ft | 511 kts | 110° |
| 2026-05-07 19:51 | 29.23000 | -176.38921 | 32315 ft | 511 kts | 110° |
| 2026-05-07 19:51 | 29.20581 | -176.31233 | 32315 ft | 511 kts | 110° |
| 2026-05-07 19:52 | 29.18168 | -176.23581 | 32316 ft | 511 kts | 110° |
| 2026-05-07 19:52 | 29.15763 | -176.15977 | 32315 ft | 511 kts | 110° |
| 2026-05-07 19:53 | 29.13339 | -176.08325 | 32316 ft | 511 kts | 110° |
| 2026-05-07 19:53 | 29.10921 | -176.00714 | 32317 ft | 510 kts | 110° |
| 2026-05-07 19:54 | 29.08486 | -175.93076 | 32316 ft | 509 kts | 110° |
| 2026-05-07 19:54 | 29.06075 | -175.85519 | 32317 ft | 506 kts | 109° |
| 2026-05-07 19:55 | 29.03663 | -175.77974 | 32318 ft | 503 kts | 109° |
| 2026-05-07 19:55 | 29.01271 | -175.70505 | 32318 ft | 500 kts | 109° |
| 2026-05-07 19:56 | 28.98885 | -175.63068 | 32318 ft | 497 kts | 109° |
| 2026-05-07 19:56 | 28.96520 | -175.55716 | 32317 ft | 493 kts | 109° |
| 2026-05-07 19:57 | 28.94149 | -175.48357 | 32317 ft | 492 kts | 109° |
| 2026-05-07 19:57 | 28.91784 | -175.41037 | 32317 ft | 491 kts | 109° |
| 2026-05-07 19:58 | 28.89427 | -175.33756 | 32315 ft | 491 kts | 109° |
| 2026-05-07 19:58 | 28.87047 | -175.26422 | 32316 ft | 492 kts | 109° |
| 2026-05-07 19:59 | 28.84680 | -175.19147 | 32316 ft | 491 kts | 109° |
| 2026-05-07 19:59 | 28.82297 | -175.11830 | 32316 ft | 492 kts | 109° |
| 2026-05-07 20:00 | 28.79906 | -175.04507 | 32316 ft | 491 kts | 109° |
| 2026-05-07 20:00 | 28.77530 | -174.97247 | 32316 ft | 491 kts | 109° |
| 2026-05-07 20:01 | 28.75125 | -174.89916 | 32316 ft | 491 kts | 109° |
| 2026-05-07 20:01 | 28.72730 | -174.82629 | 32316 ft | 491 kts | 109° |
| 2026-05-07 20:02 | 28.70339 | -174.75371 | 32316 ft | 491 kts | 109° |
| 2026-05-07 20:02 | 28.67933 | -174.68082 | 32316 ft | 491 kts | 109° |
| 2026-05-07 20:03 | 28.65521 | -174.60790 | 32316 ft | 491 kts | 109° |
| 2026-05-07 20:03 | 28.63108 | -174.53507 | 32316 ft | 491 kts | 109° |
| 2026-05-07 20:04 | 28.60700 | -174.46258 | 32316 ft | 491 kts | 109° |
| 2026-05-07 20:04 | 28.58285 | -174.38998 | 32316 ft | 491 kts | 109° |
| 2026-05-07 20:05 | 28.55861 | -174.31729 | 32316 ft | 491 kts | 110° |
| 2026-05-07 20:05 | 28.53434 | -174.24466 | 32316 ft | 491 kts | 110° |
| 2026-05-07 20:06 | 28.50994 | -174.17178 | 32316 ft | 491 kts | 110° |
| 2026-05-07 20:06 | 28.48555 | -174.09909 | 32316 ft | 491 kts | 110° |
| 2026-05-07 20:07 | 28.46108 | -174.02628 | 32316 ft | 491 kts | 110° |
| 2026-05-07 20:07 | 28.43643 | -173.95312 | 32316 ft | 491 kts | 110° |
| 2026-05-07 20:08 | 28.41199 | -173.88071 | 32316 ft | 491 kts | 110° |
| 2026-05-07 20:08 | 28.38744 | -173.80814 | 32316 ft | 491 kts | 110° |
| 2026-05-07 20:09 | 28.36296 | -173.73592 | 32316 ft | 491 kts | 110° |
| 2026-05-07 20:10 | 28.32597 | -173.62711 | 32321 ft | 491 kts | 110° |
| 2026-05-07 20:10 | 28.30140 | -173.55496 | 32324 ft | 491 kts | 110° |
| 2026-05-07 20:11 | 28.27666 | -173.48247 | 32325 ft | 491 kts | 110° |
| 2026-05-07 20:11 | 28.25195 | -173.41022 | 32325 ft | 491 kts | 110° |
| 2026-05-07 20:12 | 28.22717 | -173.33794 | 32324 ft | 491 kts | 110° |
| 2026-05-07 20:12 | 28.20231 | -173.26553 | 32325 ft | 491 kts | 110° |
| 2026-05-07 20:13 | 28.17746 | -173.19334 | 32325 ft | 491 kts | 110° |
| 2026-05-07 20:13 | 28.15269 | -173.12148 | 32324 ft | 491 kts | 110° |
| 2026-05-07 20:14 | 28.12765 | -173.04901 | 32325 ft | 491 kts | 110° |
| 2026-05-07 20:14 | 28.10274 | -172.97702 | 32325 ft | 491 kts | 110° |
| 2026-05-07 20:15 | 28.07762 | -172.90457 | 32325 ft | 492 kts | 111° |
| 2026-05-07 20:15 | 28.05258 | -172.83252 | 32325 ft | 492 kts | 111° |
| 2026-05-07 20:16 | 28.02753 | -172.76057 | 32324 ft | 493 kts | 111° |
| 2026-05-07 20:16 | 28.00230 | -172.68826 | 32325 ft | 493 kts | 111° |
| 2026-05-07 20:17 | 27.97701 | -172.61592 | 32324 ft | 493 kts | 111° |
| 2026-05-07 20:17 | 27.95191 | -172.54425 | 32325 ft | 492 kts | 111° |
| 2026-05-07 20:18 | 27.92651 | -172.47189 | 32325 ft | 493 kts | 111° |
| 2026-05-07 20:18 | 27.90133 | -172.40028 | 32325 ft | 493 kts | 111° |
| 2026-05-07 20:19 | 27.87583 | -172.32790 | 32324 ft | 493 kts | 111° |
| 2026-05-07 20:19 | 27.85045 | -172.25603 | 32325 ft | 493 kts | 111° |
| 2026-05-07 20:20 | 27.82497 | -172.18398 | 32325 ft | 493 kts | 111° |
| 2026-05-07 20:20 | 27.79963 | -172.11246 | 32324 ft | 493 kts | 111° |
| 2026-05-07 20:21 | 27.77412 | -172.04062 | 32325 ft | 493 kts | 111° |
| 2026-05-07 20:21 | 27.74838 | -171.96826 | 32325 ft | 493 kts | 111° |
| 2026-05-07 20:22 | 27.72290 | -171.89676 | 32324 ft | 493 kts | 111° |
| 2026-05-07 20:22 | 27.69729 | -171.82507 | 32324 ft | 493 kts | 111° |
| 2026-05-07 20:23 | 27.67153 | -171.75305 | 32324 ft | 493 kts | 111° |
| 2026-05-07 20:23 | 27.64583 | -171.68137 | 32324 ft | 493 kts | 111° |
| 2026-05-07 20:24 | 27.62012 | -171.60979 | 32323 ft | 493 kts | 111° |
| 2026-05-07 20:24 | 27.59427 | -171.53795 | 32323 ft | 493 kts | 111° |
| 2026-05-07 20:25 | 27.56864 | -171.46683 | 32324 ft | 493 kts | 111° |
| 2026-05-07 20:25 | 27.54274 | -171.39513 | 32325 ft | 493 kts | 111° |
| 2026-05-07 20:26 | 27.51684 | -171.32355 | 32324 ft | 493 kts | 112° |
| 2026-05-07 20:26 | 27.49091 | -171.25205 | 32325 ft | 493 kts | 112° |
| 2026-05-07 20:27 | 27.46480 | -171.18016 | 32325 ft | 493 kts | 111° |
| 2026-05-07 20:27 | 27.43889 | -171.10896 | 32324 ft | 492 kts | 111° |
| 2026-05-07 20:28 | 27.41279 | -171.03740 | 32324 ft | 493 kts | 112° |
| 2026-05-07 20:28 | 27.38665 | -170.96580 | 32323 ft | 494 kts | 112° |
| 2026-05-07 20:29 | 27.36043 | -170.89416 | 32324 ft | 495 kts | 112° |
| 2026-05-07 20:29 | 27.33434 | -170.82301 | 32323 ft | 495 kts | 112° |
| 2026-05-07 20:30 | 27.30794 | -170.75113 | 32323 ft | 495 kts | 112° |
| 2026-05-07 20:30 | 27.28157 | -170.67952 | 32325 ft | 495 kts | 112° |
| 2026-05-07 20:31 | 27.25513 | -170.60779 | 32324 ft | 495 kts | 112° |
| 2026-05-07 20:31 | 27.22882 | -170.53654 | 32324 ft | 496 kts | 112° |
| 2026-05-07 20:32 | 27.20221 | -170.46464 | 32324 ft | 495 kts | 112° |
| 2026-05-07 20:32 | 27.17570 | -170.39313 | 32323 ft | 495 kts | 112° |
| 2026-05-07 20:33 | 27.14910 | -170.32152 | 32324 ft | 495 kts | 112° |
| 2026-05-07 20:33 | 27.12244 | -170.24989 | 32323 ft | 496 kts | 112° |
| 2026-05-07 20:34 | 27.09579 | -170.17842 | 32324 ft | 496 kts | 112° |
| 2026-05-07 20:34 | 27.06908 | -170.10693 | 32325 ft | 495 kts | 112° |
| 2026-05-07 20:35 | 27.04241 | -170.03567 | 32325 ft | 496 kts | 112° |
| 2026-05-07 20:35 | 27.01581 | -169.96460 | 32324 ft | 495 kts | 113° |
| 2026-05-07 20:36 | 26.98906 | -169.89323 | 32326 ft | 492 kts | 114° |
| 2026-05-07 20:36 | 26.96263 | -169.82307 | 32350 ft | 485 kts | 114° |
| 2026-05-07 20:37 | 26.93603 | -169.75409 | 32454 ft | 478 kts | 115° |
| 2026-05-07 20:37 | 26.90927 | -169.68600 | 32643 ft | 475 kts | 114° |
| 2026-05-07 20:37 | 26.89594 | -169.65256 | 32776 ft | 475 kts | 114° |
| 2026-05-07 20:38 | 26.88234 | -169.61874 | 32953 ft | 475 kts | 114° |
| 2026-05-07 20:38 | 26.86871 | -169.58516 | 33175 ft | 475 kts | 115° |
| 2026-05-07 20:38 | 26.85488 | -169.55136 | 33455 ft | 474 kts | 115° |
| 2026-05-07 20:38 | 26.84098 | -169.51770 | 33783 ft | 473 kts | 115° |
| 2026-05-07 20:39 | 26.82711 | -169.48439 | 34121 ft | 471 kts | 115° |
| 2026-05-07 20:39 | 26.81320 | -169.45125 | 34449 ft | 470 kts | 115° |
| 2026-05-07 20:39 | 26.79926 | -169.41830 | 34770 ft | 469 kts | 115° |
| 2026-05-07 20:39 | 26.78531 | -169.38557 | 35100 ft | 467 kts | 115° |
| 2026-05-07 20:40 | 26.77107 | -169.35243 | 35443 ft | 465 kts | 116° |
| 2026-05-07 20:40 | 26.75710 | -169.32019 | 35787 ft | 463 kts | 116° |
| 2026-05-07 20:40 | 26.74303 | -169.28793 | 36142 ft | 461 kts | 116° |
| 2026-05-07 20:40 | 26.72892 | -169.25581 | 36500 ft | 458 kts | 116° |
| 2026-05-07 20:41 | 26.71481 | -169.22391 | 36855 ft | 456 kts | 117° |
| 2026-05-07 20:41 | 26.70077 | -169.19240 | 37205 ft | 453 kts | 117° |
| 2026-05-07 20:41 | 26.68661 | -169.16080 | 37554 ft | 451 kts | 117° |
| 2026-05-07 20:41 | 26.67257 | -169.12970 | 37887 ft | 449 kts | 117° |
| 2026-05-07 20:42 | 26.65854 | -169.09880 | 38217 ft | 447 kts | 117° |
| 2026-05-07 20:42 | 26.64442 | -169.06792 | 38542 ft | 445 kts | 117° |
| 2026-05-07 20:42 | 26.63035 | -169.03731 | 38855 ft | 443 kts | 117° |
| 2026-05-07 20:42 | 26.61615 | -169.00661 | 39166 ft | 441 kts | 117° |
| 2026-05-07 20:43 | 26.60199 | -168.97617 | 39471 ft | 439 kts | 117° |
| 2026-05-07 20:43 | 26.58805 | -168.94635 | 39762 ft | 437 kts | 118° |
| 2026-05-07 20:43 | 26.57392 | -168.91631 | 40052 ft | 435 kts | 118° |
| 2026-05-07 20:43 | 26.55973 | -168.88631 | 40333 ft | 433 kts | 118° |
| 2026-05-07 20:44 | 26.54576 | -168.85690 | 40602 ft | 430 kts | 118° |
| 2026-05-07 20:44 | 26.53159 | -168.82724 | 40872 ft | 428 kts | 118° |
| 2026-05-07 20:44 | 26.51756 | -168.79803 | 41130 ft | 426 kts | 118° |
| 2026-05-07 20:44 | 26.50360 | -168.76910 | 41378 ft | 423 kts | 118° |
| 2026-05-07 20:45 | 26.48961 | -168.74025 | 41614 ft | 421 kts | 118° |
| 2026-05-07 20:45 | 26.47559 | -168.71147 | 41842 ft | 419 kts | 118° |
| 2026-05-07 20:45 | 26.46161 | -168.68292 | 42064 ft | 417 kts | 118° |
| 2026-05-07 20:45 | 26.44775 | -168.65472 | 42272 ft | 415 kts | 118° |
| 2026-05-07 20:46 | 26.43376 | -168.62640 | 42477 ft | 413 kts | 119° |
| 2026-05-07 20:46 | 26.41999 | -168.59865 | 42666 ft | 411 kts | 119° |
| 2026-05-07 20:46 | 26.40605 | -168.57066 | 42855 ft | 409 kts | 119° |
| 2026-05-07 20:46 | 26.39230 | -168.54318 | 43035 ft | 407 kts | 119° |
| 2026-05-07 20:47 | 26.37841 | -168.51553 | 43207 ft | 405 kts | 119° |
| 2026-05-07 20:47 | 26.36461 | -168.48816 | 43372 ft | 403 kts | 119° |
| 2026-05-07 20:47 | 26.35099 | -168.46127 | 43529 ft | 401 kts | 119° |
| 2026-05-07 20:47 | 26.33735 | -168.43445 | 43677 ft | 399 kts | 119° |
| 2026-05-07 20:48 | 26.32361 | -168.40753 | 43819 ft | 397 kts | 120° |
| 2026-05-07 20:48 | 26.30992 | -168.38081 | 43951 ft | 395 kts | 120° |
| 2026-05-07 20:48 | 26.29639 | -168.35452 | 44076 ft | 393 kts | 120° |
| 2026-05-07 20:48 | 26.28283 | -168.32826 | 44195 ft | 391 kts | 120° |
| 2026-05-07 20:49 | 26.26914 | -168.30182 | 44314 ft | 389 kts | 120° |
| 2026-05-07 20:49 | 26.25557 | -168.27573 | 44426 ft | 387 kts | 120° |
| 2026-05-07 20:49 | 26.24219 | -168.25011 | 44526 ft | 386 kts | 120° |
| 2026-05-07 20:50 | 26.21520 | -168.19865 | 44594 ft | 386 kts | 121° |
| 2026-05-07 20:50 | 26.18765 | -168.14653 | 44505 ft | 391 kts | 121° |
| 2026-05-07 20:51 | 26.15992 | -168.09444 | 44500 ft | 393 kts | 121° |
| 2026-05-07 20:51 | 26.13182 | -168.04204 | 44561 ft | 394 kts | 121° |
| 2026-05-07 20:52 | 26.10359 | -167.98976 | 44658 ft | 393 kts | 121° |
| 2026-05-07 20:52 | 26.07534 | -167.93780 | 44779 ft | 391 kts | 121° |
| 2026-05-07 20:53 | 26.04701 | -167.88609 | 44879 ft | 390 kts | 121° |
| 2026-05-07 20:53 | 26.01874 | -167.83484 | 44846 ft | 392 kts | 122° |
| 2026-05-07 20:54 | 25.98996 | -167.78301 | 44845 ft | 393 kts | 122° |
| 2026-05-07 20:54 | 25.96102 | -167.73128 | 44899 ft | 393 kts | 122° |
| 2026-05-07 20:55 | 25.93206 | -167.67984 | 44989 ft | 392 kts | 122° |
| 2026-05-07 20:55 | 25.90305 | -167.62869 | 45051 ft | 391 kts | 122° |
| 2026-05-07 20:56 | 25.87366 | -167.57722 | 44996 ft | 394 kts | 122° |
| 2026-05-07 20:56 | 25.84405 | -167.52570 | 45006 ft | 395 kts | 122° |
| 2026-05-07 20:57 | 25.81452 | -167.47470 | 45062 ft | 395 kts | 122° |
| 2026-05-07 20:57 | 25.78482 | -167.42374 | 45149 ft | 393 kts | 123° |
| 2026-05-07 20:58 | 25.75492 | -167.37279 | 45204 ft | 393 kts | 123° |
| 2026-05-07 20:58 | 25.72492 | -167.32199 | 45154 ft | 395 kts | 123° |
| 2026-05-07 20:59 | 25.69469 | -167.27116 | 45156 ft | 396 kts | 123° |
| 2026-05-07 20:59 | 25.66428 | -167.22037 | 45204 ft | 395 kts | 124° |
| 2026-05-07 21:00 | 25.63377 | -167.16975 | 45288 ft | 394 kts | 124° |
| 2026-05-07 21:00 | 25.60319 | -167.11934 | 45315 ft | 394 kts | 124° |
| 2026-05-07 21:01 | 25.57230 | -167.06879 | 45257 ft | 396 kts | 124° |
| 2026-05-07 21:01 | 25.54130 | -167.01839 | 45258 ft | 397 kts | 124° |
| 2026-05-07 21:02 | 25.51004 | -166.96790 | 45322 ft | 396 kts | 124° |
| 2026-05-07 21:02 | 25.48289 | -166.91486 | 45255 ft | 396 kts | 114° |
| 2026-05-07 21:02 | 25.47225 | -166.88684 | 44752 ft | 403 kts | 107° |
| 2026-05-07 21:03 | 25.46668 | -166.85641 | 43811 ft | 413 kts | 91° |
| 2026-05-07 21:03 | 25.46879 | -166.82423 | 42632 ft | 427 kts | 76° |
| 2026-05-07 21:03 | 25.47802 | -166.79297 | 41412 ft | 441 kts | 67° |
| 2026-05-07 21:03 | 25.49015 | -166.76120 | 40261 ft | 453 kts | 65° |
| 2026-05-07 21:04 | 25.50266 | -166.72940 | 39362 ft | 458 kts | 65° |
| 2026-05-07 21:04 | 25.51534 | -166.69701 | 38626 ft | 458 kts | 66° |
| 2026-05-07 21:04 | 25.52786 | -166.66464 | 37936 ft | 457 kts | 66° |
| 2026-05-07 21:04 | 25.54021 | -166.63229 | 37240 ft | 456 kts | 66° |
| 2026-05-07 21:05 | 25.55246 | -166.59979 | 36515 ft | 456 kts | 66° |
| 2026-05-07 21:05 | 25.56456 | -166.56728 | 35714 ft | 458 kts | 67° |
| 2026-05-07 21:05 | 25.57658 | -166.53456 | 34655 ft | 465 kts | 67° |
| 2026-05-07 21:05 | 25.58860 | -166.50105 | 33589 ft | 471 kts | 69° |
| 2026-05-07 21:06 | 25.59747 | -166.46623 | 32798 ft | 473 kts | 79° |
| 2026-05-07 21:06 | 25.60051 | -166.43001 | 32331 ft | 477 kts | 88° |
| 2026-05-07 21:06 | 25.59848 | -166.39320 | 32172 ft | 479 kts | 97° |
| 2026-05-07 21:07 | 25.57961 | -166.32266 | 32173 ft | 480 kts | 112° |
| 2026-05-07 21:07 | 25.55199 | -166.25482 | 32171 ft | 481 kts | 114° |
| 2026-05-07 21:08 | 25.52400 | -166.18735 | 32171 ft | 481 kts | 114° |
| 2026-05-07 21:08 | 25.49623 | -166.12012 | 32171 ft | 481 kts | 114° |
| 2026-05-07 21:09 | 25.46852 | -166.05283 | 32171 ft | 482 kts | 114° |
| 2026-05-07 21:09 | 25.44072 | -165.98534 | 32171 ft | 482 kts | 114° |
| 2026-05-07 21:10 | 25.41275 | -165.91751 | 32170 ft | 481 kts | 114° |
| 2026-05-07 21:10 | 25.38501 | -165.85034 | 32170 ft | 482 kts | 114° |
| 2026-05-07 21:11 | 25.35704 | -165.78273 | 32170 ft | 481 kts | 114° |
| 2026-05-07 21:11 | 25.31534 | -165.68210 | 32170 ft | 481 kts | 114° |
| 2026-05-07 21:12 | 25.28747 | -165.61494 | 32171 ft | 482 kts | 114° |
| 2026-05-07 21:12 | 25.25937 | -165.54738 | 32170 ft | 481 kts | 114° |
| 2026-05-07 21:13 | 25.23136 | -165.48012 | 32171 ft | 481 kts | 114° |
| 2026-05-07 21:13 | 25.20317 | -165.41254 | 32171 ft | 482 kts | 114° |
| 2026-05-07 21:14 | 25.17516 | -165.34549 | 32171 ft | 482 kts | 114° |
| 2026-05-07 21:14 | 25.14706 | -165.27835 | 31879 ft | 482 kts | 114° |
| 2026-05-07 21:15 | 25.13302 | -165.24483 | 31630 ft | 482 kts | 114° |
| 2026-05-07 21:15 | 25.11878 | -165.21089 | 31377 ft | 483 kts | 114° |
| 2026-05-07 21:15 | 25.10473 | -165.17741 | 31186 ft | 483 kts | 114° |
| 2026-05-07 21:15 | 25.09056 | -165.14369 | 31122 ft | 484 kts | 114° |
| 2026-05-07 21:16 | 25.07643 | -165.11006 | 30873 ft | 483 kts | 114° |
| 2026-05-07 21:16 | 25.06218 | -165.07620 | 30620 ft | 483 kts | 114° |
| 2026-05-07 21:16 | 25.04810 | -165.04274 | 30371 ft | 483 kts | 114° |
| 2026-05-07 21:16 | 25.03395 | -165.00914 | 30185 ft | 483 kts | 114° |
| 2026-05-07 21:17 | 25.00566 | -164.94202 | 29957 ft | 483 kts | 114° |
| 2026-05-07 21:17 | 24.99152 | -164.90849 | 29707 ft | 483 kts | 114° |
| 2026-05-07 21:17 | 24.97726 | -164.87476 | 29454 ft | 483 kts | 114° |
| 2026-05-07 21:18 | 24.96315 | -164.84134 | 29224 ft | 483 kts | 114° |
| 2026-05-07 21:18 | 24.94892 | -164.80768 | 29174 ft | 483 kts | 114° |
| 2026-05-07 21:18 | 24.92052 | -164.74065 | 29169 ft | 483 kts | 114° |
| 2026-05-07 21:19 | 24.89212 | -164.67374 | 29169 ft | 482 kts | 114° |
| 2026-05-07 21:19 | 24.86349 | -164.60635 | 29169 ft | 482 kts | 114° |
| 2026-05-07 21:20 | 24.83503 | -164.53947 | 29168 ft | 483 kts | 114° |
| 2026-05-07 21:20 | 24.80636 | -164.47223 | 29169 ft | 482 kts | 114° |
| 2026-05-07 21:21 | 24.77774 | -164.40515 | 29169 ft | 482 kts | 114° |
| 2026-05-07 21:21 | 24.74891 | -164.33769 | 29169 ft | 483 kts | 114° |
| 2026-05-07 21:22 | 24.72037 | -164.27104 | 29169 ft | 483 kts | 114° |
| 2026-05-07 21:22 | 24.69179 | -164.20436 | 29170 ft | 483 kts | 114° |
| 2026-05-07 21:23 | 24.66309 | -164.13751 | 29169 ft | 482 kts | 114° |
| 2026-05-07 21:23 | 24.63432 | -164.07060 | 29169 ft | 482 kts | 114° |
| 2026-05-07 21:24 | 24.60548 | -164.00365 | 29168 ft | 483 kts | 114° |
| 2026-05-07 21:24 | 24.57672 | -163.93695 | 29168 ft | 483 kts | 114° |
| 2026-05-07 21:25 | 24.54791 | -163.87027 | 29169 ft | 483 kts | 114° |
| 2026-05-07 21:25 | 24.51900 | -163.80345 | 29169 ft | 483 kts | 114° |
| 2026-05-07 21:26 | 24.49008 | -163.73669 | 29168 ft | 483 kts | 114° |
| 2026-05-07 21:26 | 24.46119 | -163.67011 | 29169 ft | 483 kts | 114° |
| 2026-05-07 21:27 | 24.43222 | -163.60342 | 29168 ft | 482 kts | 114° |
| 2026-05-07 21:27 | 24.40340 | -163.53717 | 29169 ft | 483 kts | 114° |
| 2026-05-07 21:28 | 24.37435 | -163.47051 | 29169 ft | 483 kts | 114° |
| 2026-05-07 21:28 | 24.34533 | -163.40402 | 29170 ft | 482 kts | 114° |
| 2026-05-07 21:29 | 24.31641 | -163.33781 | 29169 ft | 483 kts | 115° |
| 2026-05-07 21:29 | 24.28733 | -163.27139 | 29169 ft | 483 kts | 115° |
| 2026-05-07 21:30 | 24.25812 | -163.20474 | 29169 ft | 483 kts | 115° |
| 2026-05-07 21:30 | 24.22892 | -163.13825 | 29045 ft | 484 kts | 115° |
| 2026-05-07 21:31 | 24.21428 | -163.10494 | 28792 ft | 484 kts | 115° |
| 2026-05-07 21:31 | 24.19971 | -163.07181 | 28541 ft | 485 kts | 114° |
| 2026-05-07 21:31 | 24.18498 | -163.03834 | 28291 ft | 485 kts | 114° |
| 2026-05-07 21:31 | 24.17038 | -163.00519 | 28174 ft | 486 kts | 114° |
| 2026-05-07 21:32 | 24.14090 | -162.93832 | 28169 ft | 487 kts | 114° |
| 2026-05-07 21:32 | 24.11145 | -162.87158 | 28169 ft | 488 kts | 114° |
| 2026-05-07 21:33 | 24.08172 | -162.80434 | 27844 ft | 488 kts | 114° |
| 2026-05-07 21:33 | 24.06692 | -162.77089 | 27594 ft | 489 kts | 114° |
| 2026-05-07 21:33 | 24.05210 | -162.73741 | 27343 ft | 489 kts | 114° |
| 2026-05-07 21:34 | 24.03720 | -162.70378 | 27092 ft | 490 kts | 114° |
| 2026-05-07 21:34 | 24.02228 | -162.67015 | 26841 ft | 490 kts | 114° |
| 2026-05-07 21:34 | 24.00740 | -162.63663 | 26591 ft | 491 kts | 114° |
| 2026-05-07 21:34 | 23.99232 | -162.60268 | 26338 ft | 491 kts | 114° |
| 2026-05-07 21:35 | 23.97745 | -162.56921 | 26089 ft | 492 kts | 114° |
| 2026-05-07 21:35 | 23.96231 | -162.53519 | 25836 ft | 492 kts | 114° |
| 2026-05-07 21:35 | 23.94734 | -162.50157 | 25586 ft | 493 kts | 114° |
| 2026-05-07 21:35 | 23.93226 | -162.46773 | 25335 ft | 493 kts | 114° |
| 2026-05-07 21:36 | 23.91732 | -162.43420 | 25087 ft | 494 kts | 114° |
| 2026-05-07 21:36 | 23.90204 | -162.39995 | 24833 ft | 495 kts | 114° |
| 2026-05-07 21:36 | 23.88697 | -162.36620 | 24581 ft | 495 kts | 115° |
| 2026-05-07 21:36 | 23.87177 | -162.33220 | 24328 ft | 493 kts | 115° |
| 2026-05-07 21:37 | 23.85673 | -162.29857 | 24077 ft | 491 kts | 115° |
| 2026-05-07 21:37 | 23.84174 | -162.26506 | 23826 ft | 489 kts | 115° |
| 2026-05-07 21:37 | 23.82687 | -162.23186 | 23576 ft | 488 kts | 115° |
| 2026-05-07 21:37 | 23.81192 | -162.19850 | 23336 ft | 488 kts | 115° |
| 2026-05-07 21:38 | 23.79688 | -162.16507 | 23449 ft | 492 kts | 115° |
| 2026-05-07 21:38 | 23.78183 | -162.13170 | 23803 ft | 490 kts | 115° |
| 2026-05-07 21:38 | 23.76662 | -162.09795 | 24075 ft | 491 kts | 115° |
| 2026-05-07 21:38 | 23.75172 | -162.06483 | 24286 ft | 493 kts | 115° |
| 2026-05-07 21:39 | 23.73638 | -162.03076 | 24494 ft | 495 kts | 115° |
| 2026-05-07 21:39 | 23.72125 | -161.99712 | 24693 ft | 496 kts | 115° |
| 2026-05-07 21:39 | 23.70593 | -161.96306 | 24949 ft | 496 kts | 115° |
| 2026-05-07 21:39 | 23.69077 | -161.92940 | 25159 ft | 495 kts | 115° |
| 2026-05-07 21:40 | 23.67544 | -161.89539 | 25165 ft | 494 kts | 115° |
| 2026-05-07 21:40 | 23.66036 | -161.86194 | 25166 ft | 494 kts | 115° |
| 2026-05-07 21:40 | 23.64500 | -161.82791 | 25167 ft | 494 kts | 115° |
| 2026-05-07 21:40 | 23.62973 | -161.79408 | 25267 ft | 497 kts | 115° |
| 2026-05-07 21:41 | 23.61455 | -161.76051 | 25590 ft | 495 kts | 115° |
| 2026-05-07 21:41 | 23.59923 | -161.72665 | 25951 ft | 493 kts | 115° |
| 2026-05-07 21:41 | 23.58402 | -161.69305 | 26161 ft | 493 kts | 115° |
| 2026-05-07 21:41 | 23.56887 | -161.65961 | 26146 ft | 493 kts | 115° |
| 2026-05-07 21:42 | 23.55372 | -161.62624 | 25900 ft | 493 kts | 115° |
| 2026-05-07 21:42 | 23.53729 | -161.59332 | 25648 ft | 494 kts | 118° |
| 2026-05-07 21:42 | 23.51910 | -161.56169 | 25398 ft | 495 kts | 122° |
| 2026-05-07 21:42 | 23.49905 | -161.53104 | 25193 ft | 496 kts | 125° |
| 2026-05-07 21:43 | 23.47828 | -161.50063 | 25171 ft | 496 kts | 125° |
| 2026-05-07 21:43 | 23.45750 | -161.47043 | 25169 ft | 496 kts | 125° |
| 2026-05-07 21:43 | 23.43681 | -161.44038 | 25168 ft | 496 kts | 125° |
| 2026-05-07 21:43 | 23.41607 | -161.41026 | 25168 ft | 496 kts | 125° |
| 2026-05-07 21:44 | 23.39513 | -161.37984 | 25168 ft | 496 kts | 125° |
| 2026-05-07 21:44 | 23.37436 | -161.34963 | 25168 ft | 496 kts | 126° |
| 2026-05-07 21:44 | 23.35382 | -161.31975 | 25168 ft | 496 kts | 126° |
| 2026-05-07 21:44 | 23.33302 | -161.28952 | 25168 ft | 496 kts | 126° |
| 2026-05-07 21:45 | 23.31229 | -161.25938 | 25168 ft | 496 kts | 126° |
| 2026-05-07 21:45 | 23.29140 | -161.22903 | 25168 ft | 496 kts | 126° |
| 2026-05-07 21:45 | 23.27065 | -161.19893 | 25167 ft | 496 kts | 126° |
| 2026-05-07 21:45 | 23.25008 | -161.16908 | 25168 ft | 496 kts | 126° |
| 2026-05-07 21:46 | 23.22907 | -161.13861 | 25168 ft | 496 kts | 126° |
| 2026-05-07 21:46 | 23.20849 | -161.10877 | 25168 ft | 496 kts | 126° |
| 2026-05-07 21:46 | 23.18767 | -161.07861 | 25168 ft | 496 kts | 126° |
| 2026-05-07 21:46 | 23.16706 | -161.04877 | 25168 ft | 496 kts | 126° |
| 2026-05-07 21:47 | 23.14624 | -161.01865 | 25167 ft | 496 kts | 126° |
| 2026-05-07 21:47 | 23.12551 | -160.98868 | 25167 ft | 497 kts | 126° |
| 2026-05-07 21:47 | 23.10455 | -160.95839 | 25167 ft | 498 kts | 126° |
| 2026-05-07 21:47 | 23.08373 | -160.92830 | 25167 ft | 498 kts | 126° |
| 2026-05-07 21:48 | 23.06298 | -160.89836 | 25167 ft | 499 kts | 126° |
| 2026-05-07 21:48 | 23.04213 | -160.86826 | 25167 ft | 499 kts | 126° |
| 2026-05-07 21:48 | 23.02124 | -160.83815 | 25167 ft | 500 kts | 126° |
| 2026-05-07 21:48 | 23.00025 | -160.80789 | 25167 ft | 501 kts | 126° |
| 2026-05-07 21:49 | 22.97921 | -160.77759 | 25168 ft | 501 kts | 126° |
| 2026-05-07 21:49 | 22.95797 | -160.74703 | 25168 ft | 502 kts | 126° |
| 2026-05-07 21:49 | 22.93711 | -160.71701 | 25168 ft | 502 kts | 126° |
| 2026-05-07 21:49 | 22.91594 | -160.68658 | 25168 ft | 502 kts | 126° |
| 2026-05-07 21:50 | 22.89500 | -160.65649 | 25168 ft | 502 kts | 126° |
| 2026-05-07 21:50 | 22.87389 | -160.62617 | 25167 ft | 502 kts | 126° |
| 2026-05-07 21:50 | 22.85289 | -160.59605 | 25167 ft | 502 kts | 126° |
| 2026-05-07 21:50 | 22.83197 | -160.56607 | 25167 ft | 502 kts | 126° |
| 2026-05-07 21:51 | 22.81094 | -160.53592 | 25167 ft | 502 kts | 126° |
| 2026-05-07 21:51 | 22.78975 | -160.50557 | 25167 ft | 502 kts | 126° |
| 2026-05-07 21:51 | 22.76869 | -160.47540 | 25167 ft | 502 kts | 126° |
| 2026-05-07 21:51 | 22.74752 | -160.44513 | 25167 ft | 502 kts | 126° |
| 2026-05-07 21:52 | 22.72642 | -160.41495 | 25167 ft | 502 kts | 126° |
| 2026-05-07 21:52 | 22.70510 | -160.38448 | 25168 ft | 502 kts | 126° |
| 2026-05-07 21:52 | 22.68418 | -160.35460 | 25167 ft | 502 kts | 126° |
| 2026-05-07 21:52 | 22.66294 | -160.32426 | 25168 ft | 502 kts | 126° |
| 2026-05-07 21:53 | 22.64203 | -160.29442 | 25168 ft | 502 kts | 126° |
| 2026-05-07 21:53 | 22.62085 | -160.26422 | 25168 ft | 502 kts | 126° |
| 2026-05-07 21:53 | 22.59967 | -160.23404 | 25168 ft | 502 kts | 126° |
| 2026-05-07 21:53 | 22.57853 | -160.20393 | 25168 ft | 502 kts | 126° |
| 2026-05-07 21:54 | 22.55738 | -160.17383 | 25168 ft | 502 kts | 126° |
| 2026-05-07 21:54 | 22.53643 | -160.14401 | 25168 ft | 502 kts | 126° |
| 2026-05-07 21:54 | 22.51525 | -160.11389 | 25168 ft | 502 kts | 126° |
| 2026-05-07 21:54 | 22.49385 | -160.08350 | 25168 ft | 502 kts | 126° |
| 2026-05-07 21:55 | 22.47297 | -160.05383 | 25168 ft | 502 kts | 126° |
| 2026-05-07 21:55 | 22.45177 | -160.02374 | 25168 ft | 502 kts | 126° |
| 2026-05-07 21:55 | 22.43036 | -159.99336 | 25168 ft | 502 kts | 126° |
| 2026-05-07 21:55 | 22.40924 | -159.96343 | 25168 ft | 502 kts | 126° |
| 2026-05-07 21:56 | 22.38824 | -159.93365 | 25168 ft | 502 kts | 126° |
| 2026-05-07 21:56 | 22.36716 | -159.90381 | 25168 ft | 502 kts | 126° |
| 2026-05-07 21:56 | 22.34577 | -159.87352 | 25164 ft | 502 kts | 126° |
| 2026-05-07 21:56 | 22.32469 | -159.84372 | 25162 ft | 492 kts | 126° |
| 2026-05-07 21:57 | 22.30451 | -159.81522 | 25076 ft | 472 kts | 126° |
| 2026-05-07 21:57 | 22.28477 | -159.78735 | 24818 ft | 455 kts | 126° |
| 2026-05-07 21:57 | 22.26584 | -159.76064 | 24565 ft | 440 kts | 126° |
| 2026-05-07 21:57 | 22.24770 | -159.73503 | 24315 ft | 430 kts | 126° |
| 2026-05-07 21:58 | 22.22944 | -159.70924 | 24063 ft | 428 kts | 126° |
| 2026-05-07 21:58 | 22.21155 | -159.68401 | 23815 ft | 426 kts | 126° |
| 2026-05-07 21:58 | 22.19347 | -159.65849 | 23563 ft | 425 kts | 126° |
| 2026-05-07 21:58 | 22.17544 | -159.63309 | 23312 ft | 424 kts | 126° |
| 2026-05-07 21:59 | 22.15755 | -159.60790 | 23062 ft | 423 kts | 126° |
| 2026-05-07 21:59 | 22.13968 | -159.58273 | 22811 ft | 422 kts | 126° |
| 2026-05-07 21:59 | 22.12177 | -159.55754 | 22559 ft | 420 kts | 126° |
| 2026-05-07 21:59 | 22.10409 | -159.53267 | 22310 ft | 419 kts | 126° |
| 2026-05-07 22:00 | 22.08650 | -159.50795 | 22061 ft | 418 kts | 126° |
| 2026-05-07 22:00 | 22.06881 | -159.48309 | 21811 ft | 417 kts | 126° |
| 2026-05-07 22:00 | 22.05097 | -159.45805 | 21557 ft | 415 kts | 126° |
| 2026-05-07 22:00 | 22.03342 | -159.43343 | 21307 ft | 414 kts | 126° |
| 2026-05-07 22:01 | 22.01606 | -159.40907 | 21059 ft | 413 kts | 126° |
| 2026-05-07 22:01 | 21.99843 | -159.38435 | 20807 ft | 412 kts | 126° |
| 2026-05-07 22:01 | 21.98106 | -159.36000 | 20557 ft | 410 kts | 126° |
| 2026-05-07 22:01 | 21.96427 | -159.33499 | 20305 ft | 409 kts | 123° |
| 2026-05-07 22:02 | 21.94915 | -159.30937 | 20056 ft | 407 kts | 121° |
| 2026-05-07 22:02 | 21.93438 | -159.28311 | 19803 ft | 406 kts | 120° |
| 2026-05-07 22:02 | 21.91994 | -159.25729 | 19554 ft | 405 kts | 120° |
| 2026-05-07 22:02 | 21.90550 | -159.23149 | 19305 ft | 403 kts | 120° |
| 2026-05-07 22:03 | 21.89093 | -159.20549 | 19052 ft | 402 kts | 120° |
| 2026-05-07 22:03 | 21.87641 | -159.17961 | 18800 ft | 401 kts | 120° |
| 2026-05-07 22:03 | 21.86204 | -159.15404 | 18549 ft | 400 kts | 121° |
| 2026-05-07 22:03 | 21.84758 | -159.12834 | 18298 ft | 398 kts | 121° |
| 2026-05-07 22:04 | 21.83333 | -159.10303 | 18049 ft | 397 kts | 121° |
| 2026-05-07 22:04 | 21.81897 | -159.07753 | 17797 ft | 396 kts | 121° |
| 2026-05-07 22:04 | 21.80480 | -159.05238 | 17548 ft | 395 kts | 121° |
| 2026-05-07 22:04 | 21.79060 | -159.02719 | 17298 ft | 394 kts | 121° |
| 2026-05-07 22:05 | 21.77625 | -159.00177 | 17045 ft | 392 kts | 121° |
| 2026-05-07 22:05 | 21.76211 | -158.97670 | 16794 ft | 391 kts | 121° |
| 2026-05-07 22:05 | 21.74801 | -158.95174 | 16544 ft | 390 kts | 121° |
| 2026-05-07 22:05 | 21.73395 | -158.92683 | 16294 ft | 389 kts | 121° |
| 2026-05-07 22:06 | 21.72001 | -158.90216 | 16045 ft | 388 kts | 121° |
| 2026-05-07 22:06 | 21.70593 | -158.87726 | 15793 ft | 387 kts | 121° |
| 2026-05-07 22:06 | 21.69200 | -158.85263 | 15543 ft | 385 kts | 121° |
| 2026-05-07 22:06 | 21.67821 | -158.82826 | 15295 ft | 384 kts | 121° |
| 2026-05-07 22:07 | 21.66431 | -158.80371 | 15027 ft | 383 kts | 121° |
| 2026-05-07 22:07 | 21.65038 | -158.77911 | 14709 ft | 381 kts | 121° |
| 2026-05-07 22:07 | 21.63648 | -158.75458 | 14311 ft | 380 kts | 121° |
| 2026-05-07 22:07 | 21.62286 | -158.73055 | 13830 ft | 377 kts | 122° |
| 2026-05-07 22:08 | 21.60920 | -158.70647 | 13306 ft | 374 kts | 122° |
| 2026-05-07 22:08 | 21.59585 | -158.68294 | 12776 ft | 372 kts | 122° |
| 2026-05-07 22:08 | 21.58234 | -158.65913 | 12233 ft | 369 kts | 122° |
| 2026-05-07 22:08 | 21.56904 | -158.63571 | 11695 ft | 367 kts | 122° |
| 2026-05-07 22:09 | 21.55591 | -158.61259 | 11179 ft | 364 kts | 122° |
| 2026-05-07 22:09 | 21.54280 | -158.58952 | 10858 ft | 353 kts | 123° |
| 2026-05-07 22:09 | 21.53036 | -158.56764 | 10684 ft | 339 kts | 123° |
| 2026-05-07 22:09 | 21.51815 | -158.54620 | 10500 ft | 326 kts | 122° |
| 2026-05-07 22:10 | 21.50654 | -158.52588 | 10316 ft | 315 kts | 122° |
| 2026-05-07 22:10 | 21.49538 | -158.50632 | 10131 ft | 304 kts | 122° |
| 2026-05-07 22:10 | 21.48437 | -158.48698 | 9731 ft | 302 kts | 122° |
| 2026-05-07 22:10 | 21.47343 | -158.46779 | 9340 ft | 300 kts | 123° |
| 2026-05-07 22:11 | 21.46265 | -158.44888 | 8966 ft | 297 kts | 123° |
| 2026-05-07 22:11 | 21.45179 | -158.42981 | 8592 ft | 294 kts | 123° |
| 2026-05-07 22:11 | 21.44130 | -158.41139 | 8256 ft | 290 kts | 123° |
| 2026-05-07 22:11 | 21.43081 | -158.39296 | 8166 ft | 290 kts | 123° |
| 2026-05-07 22:12 | 21.42020 | -158.37437 | 8164 ft | 291 kts | 123° |
| 2026-05-07 22:12 | 21.40964 | -158.35588 | 8163 ft | 291 kts | 123° |
| 2026-05-07 22:12 | 21.39903 | -158.33730 | 8157 ft | 290 kts | 123° |
| 2026-05-07 22:12 | 21.38863 | -158.31906 | 7879 ft | 287 kts | 123° |
| 2026-05-07 22:13 | 21.37821 | -158.30083 | 7400 ft | 288 kts | 123° |
| 2026-05-07 22:13 | 21.36777 | -158.28253 | 6983 ft | 286 kts | 123° |
| 2026-05-07 22:13 | 21.35743 | -158.26443 | 6585 ft | 284 kts | 123° |
| 2026-05-07 22:13 | 21.34718 | -158.24651 | 6187 ft | 282 kts | 123° |
| 2026-05-07 22:14 | 21.33698 | -158.22867 | 5790 ft | 280 kts | 123° |
| 2026-05-07 22:14 | 21.32676 | -158.21078 | 5394 ft | 278 kts | 123° |
| 2026-05-07 22:14 | 21.31670 | -158.19322 | 5005 ft | 276 kts | 123° |
| 2026-05-07 22:14 | 21.30671 | -158.17572 | 4664 ft | 272 kts | 122° |
| 2026-05-07 22:15 | 21.29773 | -158.15823 | 4390 ft | 266 kts | 119° |
| 2026-05-07 22:15 | 21.28932 | -158.14092 | 4129 ft | 260 kts | 119° |
| 2026-05-07 22:15 | 21.28112 | -158.12389 | 3877 ft | 254 kts | 119° |
| 2026-05-07 22:15 | 21.27314 | -158.10738 | 3638 ft | 248 kts | 118° |
| 2026-05-07 22:16 | 21.26516 | -158.09090 | 3357 ft | 244 kts | 119° |
| 2026-05-07 22:16 | 21.25748 | -158.07510 | 3081 ft | 240 kts | 118° |
| 2026-05-07 22:16 | 21.24983 | -158.05936 | 2791 ft | 235 kts | 118° |
| 2026-05-07 22:16 | 21.24240 | -158.04411 | 2457 ft | 227 kts | 118° |
| 2026-05-07 22:17 | 21.23767 | -158.02858 | 2063 ft | 213 kts | 89° |
| 2026-05-07 22:17 | 21.24279 | -158.01531 | 2013 ft | 181 kts | 46° |
| 2026-05-07 22:17 | 21.25140 | -158.00682 | 2005 ft | 157 kts | 38° |
| 2026-05-07 22:17 | 21.25924 | -157.99937 | 1926 ft | 144 kts | 40° |
| 2026-05-07 22:18 | 21.26623 | -157.99184 | 1664 ft | 145 kts | 45° |
| 2026-05-07 22:18 | 21.27927 | -157.97578 | 1163 ft | 143 kts | 47° |
| 2026-05-07 22:18 | 21.28540 | -157.96761 | 960 ft | 136 kts | 51° |
| 2026-05-07 22:19 | 21.29104 | -157.95956 | 779 ft | 132 kts | 49° |
| 2026-05-07 22:19 | 21.29649 | -157.95181 | 611 ft | 131 kts | 50° |
| 2026-05-07 22:19 | 21.30194 | -157.94405 | 443 ft | 129 kts | 50° |
| 2026-05-07 22:19 | 21.30729 | -157.93630 | 250 ft | 127 kts | 49° |
| 2026-05-07 22:20 | 21.31274 | -157.92877 | 92 ft | 128 kts | 52° |
| 2026-05-07 22:20 | 21.31790 | -157.92148 | 19 ft | 107 kts | 49° |
| 2026-05-07 22:20 | 21.32078 | -157.91744 | 14 ft | 46 kts | 52° |
| 2026-05-07 22:20 | 21.32246 | -157.91505 | 15 ft | 29 kts | 47° |
| 2026-05-07 22:21 | 21.32395 | -157.91380 | 19 ft | 25 kts | 26° |
| 2026-05-07 22:21 | 21.32559 | -157.91330 | 21 ft | 23 kts | 9° |
| 2026-05-07 22:21 | 21.32697 | -157.91306 | 26 ft | 15 kts | 11° |
| 2026-05-07 22:21 | 21.32774 | -157.91334 | 29 ft | 12 kts | 278° |
| 2026-05-07 22:22 | 21.32772 | -157.91438 | 27 ft | 14 kts | 268° |
| 2026-05-07 22:22 | 21.32771 | -157.91547 | 27 ft | 14 kts | 270° |
| 2026-05-07 22:22 | 21.32771 | -157.91661 | 26 ft | 16 kts | 271° |
| 2026-05-07 22:22 | 21.32772 | -157.91788 | 26 ft | 17 kts | 270° |
| 2026-05-07 22:23 | 21.32773 | -157.91921 | 28 ft | 17 kts | 270° |
| 2026-05-07 22:23 | 21.32773 | -157.92044 | 29 ft | 16 kts | 270° |
| 2026-05-07 22:23 | 21.32773 | -157.92168 | 31 ft | 16 kts | 270° |
| 2026-05-07 22:23 | 21.32774 | -157.92299 | 33 ft | 21 kts | 270° |
| 2026-05-07 22:24 | 21.32773 | -157.92497 | 34 ft | 30 kts | 270° |
| 2026-05-07 22:24 | 21.32768 | -157.92723 | 31 ft | 29 kts | 256° |
| 2026-05-07 22:24 | 21.32749 | -157.92938 | 28 ft | 22 kts | 293° |
| 2026-05-07 22:24 | 21.32809 | -157.92915 | 29 ft | 10 kts | 47° |
| 2026-05-07 22:25 | 21.32878 | -157.92894 | 29 ft | 11 kts | 9° |
| 2026-05-07 22:25 | 21.32950 | -157.92848 | 29 ft | 12 kts | 48° |
| 2026-05-07 22:25 | 21.33012 | -157.92773 | 30 ft | 13 kts | 48° |
| 2026-05-07 22:25 | 21.33073 | -157.92705 | 32 ft | 13 kts | 46° |
| 2026-05-07 22:26 | 21.33139 | -157.92627 | 33 ft | 13 kts | 48° |
| 2026-05-07 22:26 | 21.33208 | -157.92572 | 34 ft | 12 kts | 7° |
| 2026-05-07 22:26 | 21.33288 | -157.92560 | 36 ft | 11 kts | 7° |
| 2026-05-07 22:26 | 21.33359 | -157.92551 | 38 ft | 10 kts | 7° |
| 2026-05-07 22:27 | 21.33426 | -157.92541 | 39 ft | 9 kts | 4° |
| 2026-05-07 22:27 | 21.33486 | -157.92567 | 40 ft | 10 kts | 325° |
| 2026-05-07 22:27 | 21.33559 | -157.92619 | 40 ft | 13 kts | 340° |
| 2026-05-07 22:27 | 21.33624 | -157.92580 | 41 ft | 7 kts | 79° |
| 2026-05-07 22:28 | 21.33619 | -157.92526 | 41 ft | 3 kts | 99° |